GEC857 KMCO-LIMC
Flight info
| Callsign | GEC857 |
|---|---|
| Flight time | 8h 52m |
| Altitude | 31000 |
| Route | MZULO3 ETECK KR90W JAINS 3768N 3760N 3850N 3940N 3930N 4020N ERPES DIRMA BARDI PINAR PONEN PIVUS DIBER NETUP STP RAPED PIGOS EKSID NOSTA NOPMU ANAKI P860 DEVOX |
| Aircraft | B77L/H-SDE1E2E3FGHIJ2J3J4J5M1RWXY/LB1D1 |
Departure
| Time | 2026-04-25 11:37 |
|---|---|
| Airport | Orlando International Airport (KMCO) |
Arrival
| Time | 2026-04-25 20:29 |
|---|---|
| Airport | Milan Malpensa International Airport (LIMC) |
| Time | Latitude | Longitude | Altitude | Speed | Heading |
|---|---|---|---|---|---|
| 2026-04-25 10:22 | 28.43622 | -81.33009 | 109 ft | 0 kts | 269° |
| 2026-04-25 11:02 | 28.43622 | -81.33007 | 109 ft | 2 kts | 269° |
| 2026-04-25 11:02 | 28.43623 | -81.32979 | 110 ft | 4 kts | 259° |
| 2026-04-25 11:02 | 28.43633 | -81.32952 | 109 ft | 4 kts | 230° |
| 2026-04-25 11:03 | 28.43653 | -81.32933 | 109 ft | 4 kts | 198° |
| 2026-04-25 11:03 | 28.43667 | -81.32930 | 108 ft | 1 kts | 179° |
| 2026-04-25 11:06 | 28.43666 | -81.32930 | 108 ft | 1 kts | 179° |
| 2026-04-25 11:06 | 28.43637 | -81.32929 | 109 ft | 7 kts | 179° |
| 2026-04-25 11:07 | 28.43606 | -81.32929 | 110 ft | 2 kts | 179° |
| 2026-04-25 11:07 | 28.43593 | -81.32929 | 109 ft | 4 kts | 179° |
| 2026-04-25 11:07 | 28.43532 | -81.32928 | 112 ft | 12 kts | 179° |
| 2026-04-25 11:07 | 28.43445 | -81.32927 | 113 ft | 12 kts | 179° |
| 2026-04-25 11:08 | 28.43364 | -81.32926 | 111 ft | 11 kts | 179° |
| 2026-04-25 11:08 | 28.43293 | -81.32926 | 110 ft | 9 kts | 179° |
| 2026-04-25 11:08 | 28.43236 | -81.32925 | 112 ft | 7 kts | 179° |
| 2026-04-25 11:08 | 28.43162 | -81.32924 | 114 ft | 14 kts | 179° |
| 2026-04-25 11:09 | 28.43060 | -81.32923 | 113 ft | 14 kts | 179° |
| 2026-04-25 11:09 | 28.42957 | -81.32921 | 111 ft | 15 kts | 179° |
| 2026-04-25 11:09 | 28.42850 | -81.32920 | 109 ft | 15 kts | 179° |
| 2026-04-25 11:09 | 28.42756 | -81.32918 | 109 ft | 11 kts | 179° |
| 2026-04-25 11:10 | 28.42690 | -81.32916 | 109 ft | 7 kts | 173° |
| 2026-04-25 11:10 | 28.42668 | -81.32906 | 108 ft | 4 kts | 148° |
| 2026-04-25 11:10 | 28.42660 | -81.32898 | 108 ft | 0 kts | 134° |
| 2026-04-25 11:12 | 28.42656 | -81.32892 | 108 ft | 2 kts | 130° |
| 2026-04-25 11:12 | 28.42650 | -81.32878 | 108 ft | 2 kts | 112° |
| 2026-04-25 11:12 | 28.42649 | -81.32869 | 107 ft | 1 kts | 98° |
| 2026-04-25 11:12 | 28.42650 | -81.32857 | 108 ft | 3 kts | 86° |
| 2026-04-25 11:13 | 28.42650 | -81.32846 | 108 ft | 1 kts | 86° |
| 2026-04-25 11:13 | 28.42652 | -81.32813 | 107 ft | 11 kts | 86° |
| 2026-04-25 11:13 | 28.42655 | -81.32724 | 107 ft | 11 kts | 92° |
| 2026-04-25 11:13 | 28.42635 | -81.32637 | 107 ft | 12 kts | 117° |
| 2026-04-25 11:14 | 28.42593 | -81.32551 | 109 ft | 14 kts | 120° |
| 2026-04-25 11:14 | 28.42537 | -81.32441 | 109 ft | 17 kts | 120° |
| 2026-04-25 11:14 | 28.42483 | -81.32336 | 108 ft | 14 kts | 120° |
| 2026-04-25 11:14 | 28.42438 | -81.32254 | 112 ft | 12 kts | 122° |
| 2026-04-25 11:15 | 28.42398 | -81.32181 | 111 ft | 10 kts | 122° |
| 2026-04-25 11:15 | 28.42364 | -81.32117 | 112 ft | 9 kts | 120° |
| 2026-04-25 11:15 | 28.42344 | -81.32002 | 110 ft | 19 kts | 88° |
| 2026-04-25 11:15 | 28.42348 | -81.31867 | 112 ft | 17 kts | 88° |
| 2026-04-25 11:16 | 28.42351 | -81.31607 | 107 ft | 16 kts | 90° |
| 2026-04-25 11:16 | 28.42351 | -81.31479 | 106 ft | 16 kts | 90° |
| 2026-04-25 11:16 | 28.42352 | -81.31364 | 105 ft | 14 kts | 90° |
| 2026-04-25 11:17 | 28.42349 | -81.31256 | 104 ft | 14 kts | 95° |
| 2026-04-25 11:17 | 28.42335 | -81.31144 | 104 ft | 15 kts | 101° |
| 2026-04-25 11:17 | 28.42319 | -81.31022 | 104 ft | 17 kts | 90° |
| 2026-04-25 11:17 | 28.42323 | -81.30885 | 104 ft | 18 kts | 87° |
| 2026-04-25 11:18 | 28.42330 | -81.30775 | 108 ft | 8 kts | 85° |
| 2026-04-25 11:18 | 28.42335 | -81.30715 | 109 ft | 7 kts | 85° |
| 2026-04-25 11:18 | 28.42338 | -81.30668 | 110 ft | 5 kts | 85° |
| 2026-04-25 11:18 | 28.42341 | -81.30623 | 110 ft | 8 kts | 85° |
| 2026-04-25 11:19 | 28.42349 | -81.30523 | 110 ft | 17 kts | 85° |
| 2026-04-25 11:19 | 28.42359 | -81.30381 | 105 ft | 19 kts | 87° |
| 2026-04-25 11:19 | 28.42360 | -81.30244 | 105 ft | 16 kts | 89° |
| 2026-04-25 11:19 | 28.42362 | -81.30105 | 108 ft | 19 kts | 89° |
| 2026-04-25 11:20 | 28.42365 | -81.29956 | 108 ft | 18 kts | 89° |
| 2026-04-25 11:20 | 28.42366 | -81.29821 | 107 ft | 14 kts | 90° |
| 2026-04-25 11:20 | 28.42369 | -81.29731 | 107 ft | 10 kts | 75° |
| 2026-04-25 11:20 | 28.42423 | -81.29702 | 107 ft | 10 kts | 359° |
| 2026-04-25 11:21 | 28.42510 | -81.29704 | 106 ft | 15 kts | 359° |
| 2026-04-25 11:21 | 28.42630 | -81.29706 | 105 ft | 20 kts | 359° |
| 2026-04-25 11:21 | 28.42770 | -81.29707 | 107 ft | 19 kts | 0° |
| 2026-04-25 11:21 | 28.42890 | -81.29706 | 110 ft | 16 kts | 0° |
| 2026-04-25 11:22 | 28.43043 | -81.29705 | 108 ft | 28 kts | 359° |
| 2026-04-25 11:22 | 28.43151 | -81.29707 | 108 ft | 15 kts | 359° |
| 2026-04-25 11:22 | 28.43267 | -81.29710 | 111 ft | 11 kts | 359° |
| 2026-04-25 11:22 | 28.43333 | -81.29711 | 111 ft | 8 kts | 359° |
| 2026-04-25 11:23 | 28.43344 | -81.29711 | 110 ft | 0 kts | 359° |
| 2026-04-25 11:28 | 28.43356 | -81.29711 | 111 ft | 4 kts | 359° |
| 2026-04-25 11:28 | 28.43389 | -81.29712 | 110 ft | 7 kts | 359° |
| 2026-04-25 11:29 | 28.43466 | -81.29713 | 109 ft | 12 kts | 359° |
| 2026-04-25 11:29 | 28.43510 | -81.29713 | 108 ft | 0 kts | 2° |
| 2026-04-25 11:29 | 28.43511 | -81.29713 | 108 ft | 0 kts | 2° |
| 2026-04-25 11:29 | 28.43512 | -81.29713 | 108 ft | 1 kts | 2° |
| 2026-04-25 11:30 | 28.43519 | -81.29712 | 108 ft | 1 kts | 9° |
| 2026-04-25 11:30 | 28.43524 | -81.29710 | 108 ft | 0 kts | 14° |
| 2026-04-25 11:30 | 28.43525 | -81.29710 | 108 ft | 0 kts | 15° |
| 2026-04-25 11:34 | 28.43554 | -81.29682 | 108 ft | 9 kts | 58° |
| 2026-04-25 11:35 | 28.43556 | -81.29624 | 108 ft | 6 kts | 107° |
| 2026-04-25 11:35 | 28.43536 | -81.29596 | 109 ft | 3 kts | 145° |
| 2026-04-25 11:35 | 28.43519 | -81.29590 | 109 ft | 2 kts | 171° |
| 2026-04-25 11:35 | 28.43514 | -81.29590 | 109 ft | 0 kts | 175° |
| 2026-04-25 11:36 | 28.43504 | -81.29589 | 109 ft | 9 kts | 175° |
| 2026-04-25 11:36 | 28.43197 | -81.29577 | 109 ft | 86 kts | 180° |
| 2026-04-25 11:36 | 28.42312 | -81.29572 | 106 ft | 167 kts | 180° |
| 2026-04-25 11:36 | 28.40984 | -81.29558 | 409 ft | 202 kts | 180° |
| 2026-04-25 11:37 | 28.39544 | -81.29578 | 1103 ft | 209 kts | 181° |
| 2026-04-25 11:37 | 28.38096 | -81.29608 | 2084 ft | 205 kts | 176° |
| 2026-04-25 11:37 | 28.36735 | -81.29212 | 2719 ft | 208 kts | 154° |
| 2026-04-25 11:37 | 28.35463 | -81.28266 | 2926 ft | 231 kts | 139° |
| 2026-04-25 11:38 | 28.34372 | -81.26850 | 3242 ft | 247 kts | 118° |
| 2026-04-25 11:38 | 28.34039 | -81.24912 | 3646 ft | 262 kts | 81° |
| 2026-04-25 11:38 | 28.34639 | -81.22934 | 4113 ft | 270 kts | 68° |
| 2026-04-25 11:38 | 28.35376 | -81.20945 | 4765 ft | 275 kts | 68° |
| 2026-04-25 11:39 | 28.36088 | -81.18929 | 5553 ft | 275 kts | 69° |
| 2026-04-25 11:39 | 28.36784 | -81.16896 | 6270 ft | 279 kts | 69° |
| 2026-04-25 11:39 | 28.37481 | -81.14815 | 6899 ft | 285 kts | 69° |
| 2026-04-25 11:39 | 28.38174 | -81.12693 | 7589 ft | 288 kts | 69° |
| 2026-04-25 11:40 | 28.38854 | -81.10584 | 8333 ft | 288 kts | 69° |
| 2026-04-25 11:40 | 28.39537 | -81.08415 | 9055 ft | 288 kts | 70° |
| 2026-04-25 11:40 | 28.40179 | -81.06286 | 9675 ft | 291 kts | 69° |
| 2026-04-25 11:40 | 28.40882 | -81.04111 | 10201 ft | 297 kts | 68° |
| 2026-04-25 11:41 | 28.41612 | -81.01846 | 10436 ft | 315 kts | 68° |
| 2026-04-25 11:41 | 28.42387 | -80.99426 | 10606 ft | 336 kts | 69° |
| 2026-04-25 11:41 | 28.43201 | -80.96851 | 10770 ft | 357 kts | 69° |
| 2026-04-25 11:41 | 28.44055 | -80.94118 | 10980 ft | 376 kts | 69° |
| 2026-04-25 11:42 | 28.44942 | -80.91273 | 11445 ft | 387 kts | 69° |
| 2026-04-25 11:42 | 28.45851 | -80.88354 | 12012 ft | 395 kts | 69° |
| 2026-04-25 11:42 | 28.46775 | -80.85389 | 12652 ft | 400 kts | 69° |
| 2026-04-25 11:42 | 28.47612 | -80.82354 | 13336 ft | 405 kts | 75° |
| 2026-04-25 11:43 | 28.48123 | -80.79197 | 14017 ft | 409 kts | 82° |
| 2026-04-25 11:43 | 28.48462 | -80.75969 | 14651 ft | 414 kts | 82° |
| 2026-04-25 11:43 | 28.48802 | -80.72695 | 15263 ft | 418 kts | 82° |
| 2026-04-25 11:43 | 28.49151 | -80.69397 | 15885 ft | 422 kts | 81° |
| 2026-04-25 11:44 | 28.49504 | -80.66112 | 16470 ft | 426 kts | 81° |
| 2026-04-25 11:44 | 28.49876 | -80.62705 | 17049 ft | 430 kts | 81° |
| 2026-04-25 11:44 | 28.50249 | -80.59313 | 17600 ft | 435 kts | 81° |
| 2026-04-25 11:44 | 28.50621 | -80.55942 | 18145 ft | 438 kts | 81° |
| 2026-04-25 11:45 | 28.51002 | -80.52485 | 18678 ft | 442 kts | 81° |
| 2026-04-25 11:45 | 28.51385 | -80.49002 | 19207 ft | 446 kts | 81° |
| 2026-04-25 11:45 | 28.51770 | -80.45489 | 19721 ft | 450 kts | 81° |
| 2026-04-25 11:45 | 28.52157 | -80.41946 | 20246 ft | 453 kts | 81° |
| 2026-04-25 11:46 | 28.52545 | -80.38377 | 20742 ft | 456 kts | 81° |
| 2026-04-25 11:46 | 28.52935 | -80.34792 | 21234 ft | 459 kts | 81° |
| 2026-04-25 11:46 | 28.53409 | -80.31192 | 21693 ft | 461 kts | 76° |
| 2026-04-25 11:46 | 28.54208 | -80.27644 | 22141 ft | 463 kts | 70° |
| 2026-04-25 11:47 | 28.55321 | -80.24209 | 22561 ft | 465 kts | 64° |
| 2026-04-25 11:47 | 28.56627 | -80.20831 | 22987 ft | 467 kts | 64° |
| 2026-04-25 11:47 | 28.57949 | -80.17438 | 23405 ft | 471 kts | 64° |
| 2026-04-25 11:47 | 28.59275 | -80.14012 | 23833 ft | 474 kts | 64° |
| 2026-04-25 11:48 | 28.60594 | -80.10574 | 24262 ft | 476 kts | 64° |
| 2026-04-25 11:48 | 28.61914 | -80.07105 | 24677 ft | 479 kts | 64° |
| 2026-04-25 11:48 | 28.63236 | -80.03614 | 25069 ft | 482 kts | 64° |
| 2026-04-25 11:48 | 28.64563 | -80.00099 | 25432 ft | 485 kts | 65° |
| 2026-04-25 11:49 | 28.65898 | -79.96557 | 25808 ft | 488 kts | 65° |
| 2026-04-25 11:49 | 28.67239 | -79.92996 | 26199 ft | 490 kts | 65° |
| 2026-04-25 11:49 | 28.68586 | -79.89418 | 26581 ft | 493 kts | 65° |
| 2026-04-25 11:49 | 28.69939 | -79.85820 | 26938 ft | 496 kts | 65° |
| 2026-04-25 11:50 | 28.70840 | -79.83424 | 27182 ft | 497 kts | 65° |
| 2026-04-25 11:50 | 28.72203 | -79.79796 | 27535 ft | 500 kts | 65° |
| 2026-04-25 11:50 | 28.73572 | -79.76145 | 27877 ft | 502 kts | 65° |
| 2026-04-25 11:50 | 28.74945 | -79.72477 | 28211 ft | 504 kts | 65° |
| 2026-04-25 11:51 | 28.76326 | -79.68789 | 28545 ft | 506 kts | 65° |
| 2026-04-25 11:51 | 28.77710 | -79.65092 | 28885 ft | 508 kts | 65° |
| 2026-04-25 11:51 | 28.79097 | -79.61381 | 29186 ft | 510 kts | 65° |
| 2026-04-25 11:51 | 28.80546 | -79.57684 | 29457 ft | 511 kts | 61° |
| 2026-04-25 11:52 | 28.82255 | -79.54128 | 29719 ft | 511 kts | 56° |
| 2026-04-25 11:52 | 28.84271 | -79.50788 | 29982 ft | 511 kts | 51° |
| 2026-04-25 11:52 | 28.86375 | -79.47511 | 30271 ft | 512 kts | 51° |
| 2026-04-25 11:52 | 28.88474 | -79.44242 | 30616 ft | 511 kts | 52° |
| 2026-04-25 11:53 | 28.90570 | -79.40962 | 30979 ft | 510 kts | 52° |
| 2026-04-25 11:53 | 28.92658 | -79.37668 | 30918 ft | 513 kts | 52° |
| 2026-04-25 11:53 | 28.96801 | -79.31072 | 30927 ft | 509 kts | 52° |
| 2026-04-25 11:54 | 29.00905 | -79.24505 | 30943 ft | 507 kts | 52° |
| 2026-04-25 11:55 | 29.07022 | -79.14703 | 30942 ft | 507 kts | 52° |
| 2026-04-25 11:55 | 29.11116 | -79.08133 | 30948 ft | 507 kts | 52° |
| 2026-04-25 11:56 | 29.15210 | -79.01554 | 30948 ft | 508 kts | 53° |
| 2026-04-25 11:56 | 29.19316 | -78.94948 | 30946 ft | 508 kts | 53° |
| 2026-04-25 11:57 | 29.23406 | -78.88351 | 30941 ft | 508 kts | 53° |
| 2026-04-25 11:57 | 29.27503 | -78.81734 | 30948 ft | 509 kts | 53° |
| 2026-04-25 11:58 | 29.31591 | -78.75120 | 30948 ft | 509 kts | 53° |
| 2026-04-25 11:58 | 29.35684 | -78.68490 | 30947 ft | 509 kts | 53° |
| 2026-04-25 11:59 | 29.39866 | -78.61932 | 30944 ft | 509 kts | 51° |
| 2026-04-25 11:59 | 29.44170 | -78.55473 | 30949 ft | 509 kts | 51° |
| 2026-04-25 12:00 | 29.51056 | -78.46252 | 30946 ft | 506 kts | 39° |
| 2026-04-25 12:01 | 29.59205 | -78.38655 | 30938 ft | 505 kts | 37° |
| 2026-04-25 12:01 | 29.64659 | -78.33562 | 30945 ft | 505 kts | 38° |
| 2026-04-25 12:02 | 29.72805 | -78.25859 | 30946 ft | 505 kts | 38° |
| 2026-04-25 12:02 | 29.78230 | -78.20712 | 30948 ft | 505 kts | 38° |
| 2026-04-25 12:03 | 29.83651 | -78.15566 | 30954 ft | 505 kts | 38° |
| 2026-04-25 12:03 | 29.89063 | -78.10421 | 30952 ft | 504 kts | 38° |
| 2026-04-25 12:04 | 29.94468 | -78.05277 | 30954 ft | 504 kts | 38° |
| 2026-04-25 12:04 | 29.99884 | -78.00158 | 30953 ft | 503 kts | 36° |
| 2026-04-25 12:05 | 30.05709 | -77.95730 | 30939 ft | 501 kts | 30° |
| 2026-04-25 12:05 | 30.11644 | -77.91500 | 30951 ft | 501 kts | 30° |
| 2026-04-25 12:06 | 30.17567 | -77.87238 | 30938 ft | 502 kts | 31° |
| 2026-04-25 12:06 | 30.23469 | -77.82945 | 30933 ft | 501 kts | 31° |
| 2026-04-25 12:07 | 30.29376 | -77.78631 | 30936 ft | 502 kts | 31° |
| 2026-04-25 12:07 | 30.35239 | -77.74340 | 30934 ft | 502 kts | 31° |
| 2026-04-25 12:08 | 30.41141 | -77.70019 | 30935 ft | 502 kts | 31° |
| 2026-04-25 12:08 | 30.47054 | -77.65686 | 30942 ft | 502 kts | 31° |
| 2026-04-25 12:09 | 30.52961 | -77.61349 | 30948 ft | 502 kts | 31° |
| 2026-04-25 12:09 | 30.58855 | -77.57015 | 30948 ft | 502 kts | 31° |
| 2026-04-25 12:10 | 30.64770 | -77.52661 | 31208 ft | 504 kts | 31° |
| 2026-04-25 12:10 | 30.67721 | -77.50486 | 31608 ft | 501 kts | 31° |
| 2026-04-25 12:10 | 30.70655 | -77.48321 | 32017 ft | 498 kts | 31° |
| 2026-04-25 12:11 | 30.73571 | -77.46168 | 32399 ft | 495 kts | 31° |
| 2026-04-25 12:11 | 30.76475 | -77.44024 | 32734 ft | 494 kts | 31° |
| 2026-04-25 12:11 | 30.79376 | -77.41879 | 32870 ft | 495 kts | 31° |
| 2026-04-25 12:11 | 30.82289 | -77.39724 | 32917 ft | 496 kts | 31° |
| 2026-04-25 12:12 | 30.87124 | -77.36143 | 32925 ft | 495 kts | 32° |
| 2026-04-25 12:12 | 30.93900 | -77.31117 | 32934 ft | 492 kts | 32° |
| 2026-04-25 12:13 | 30.99667 | -77.26834 | 32937 ft | 491 kts | 32° |
| 2026-04-25 12:13 | 31.05393 | -77.22577 | 32935 ft | 491 kts | 32° |
| 2026-04-25 12:14 | 31.11149 | -77.18289 | 32937 ft | 491 kts | 32° |
| 2026-04-25 12:14 | 31.16904 | -77.13995 | 32937 ft | 492 kts | 32° |
| 2026-04-25 12:15 | 31.22672 | -77.09683 | 32936 ft | 492 kts | 32° |
| 2026-04-25 12:15 | 31.28454 | -77.05358 | 32948 ft | 493 kts | 32° |
| 2026-04-25 12:16 | 31.34134 | -77.00859 | 32938 ft | 495 kts | 38° |
| 2026-04-25 12:16 | 31.39091 | -76.95257 | 32943 ft | 496 kts | 49° |
| 2026-04-25 12:17 | 31.43460 | -76.89009 | 32952 ft | 497 kts | 50° |
| 2026-04-25 12:17 | 31.47821 | -76.82722 | 32946 ft | 497 kts | 50° |
| 2026-04-25 12:18 | 31.52207 | -76.76445 | 32942 ft | 498 kts | 50° |
| 2026-04-25 12:18 | 31.56606 | -76.70176 | 32943 ft | 498 kts | 50° |
| 2026-04-25 12:19 | 31.63209 | -76.60762 | 32944 ft | 498 kts | 50° |
| 2026-04-25 12:20 | 31.67603 | -76.54481 | 32940 ft | 498 kts | 50° |
| 2026-04-25 12:20 | 31.71995 | -76.48193 | 32934 ft | 498 kts | 50° |
| 2026-04-25 12:21 | 31.76372 | -76.41914 | 32934 ft | 498 kts | 50° |
| 2026-04-25 12:21 | 31.80752 | -76.35619 | 32935 ft | 497 kts | 50° |
| 2026-04-25 12:22 | 31.85126 | -76.29323 | 32936 ft | 497 kts | 50° |
| 2026-04-25 12:22 | 31.89494 | -76.23026 | 32935 ft | 496 kts | 50° |
| 2026-04-25 12:23 | 31.93860 | -76.16723 | 32935 ft | 497 kts | 50° |
| 2026-04-25 12:23 | 31.98223 | -76.10412 | 32935 ft | 497 kts | 50° |
| 2026-04-25 12:24 | 32.02553 | -76.04140 | 32937 ft | 496 kts | 50° |
| 2026-04-25 12:24 | 32.06908 | -75.97819 | 32935 ft | 497 kts | 50° |
| 2026-04-25 12:25 | 32.11257 | -75.91497 | 32936 ft | 497 kts | 50° |
| 2026-04-25 12:25 | 32.15610 | -75.85159 | 32935 ft | 497 kts | 50° |
| 2026-04-25 12:26 | 32.19962 | -75.78810 | 32925 ft | 497 kts | 50° |
| 2026-04-25 12:26 | 32.24307 | -75.72464 | 32927 ft | 497 kts | 50° |
| 2026-04-25 12:27 | 32.28654 | -75.66103 | 32924 ft | 497 kts | 50° |
| 2026-04-25 12:27 | 32.32997 | -75.59734 | 32928 ft | 498 kts | 50° |
| 2026-04-25 12:28 | 32.37337 | -75.53358 | 32941 ft | 497 kts | 50° |
| 2026-04-25 12:28 | 32.41671 | -75.46984 | 32945 ft | 497 kts | 50° |
| 2026-04-25 12:29 | 32.45994 | -75.40616 | 32945 ft | 496 kts | 50° |
| 2026-04-25 12:29 | 32.50314 | -75.34239 | 32944 ft | 496 kts | 50° |
| 2026-04-25 12:30 | 32.54627 | -75.27862 | 32947 ft | 496 kts | 50° |
| 2026-04-25 12:30 | 32.58943 | -75.21469 | 32944 ft | 495 kts | 50° |
| 2026-04-25 12:31 | 32.63237 | -75.15098 | 32946 ft | 495 kts | 50° |
| 2026-04-25 12:31 | 32.67531 | -75.08720 | 32944 ft | 494 kts | 50° |
| 2026-04-25 12:32 | 32.71785 | -75.02386 | 32952 ft | 493 kts | 50° |
| 2026-04-25 12:32 | 32.76063 | -74.96008 | 32943 ft | 493 kts | 50° |
| 2026-04-25 12:33 | 32.80336 | -74.89625 | 32933 ft | 493 kts | 50° |
| 2026-04-25 12:33 | 32.84603 | -74.83242 | 32936 ft | 492 kts | 50° |
| 2026-04-25 12:34 | 32.88867 | -74.76852 | 32934 ft | 492 kts | 50° |
| 2026-04-25 12:34 | 32.93116 | -74.70470 | 32937 ft | 492 kts | 50° |
| 2026-04-25 12:35 | 32.97371 | -74.64068 | 32935 ft | 492 kts | 50° |
| 2026-04-25 12:35 | 33.00903 | -74.58748 | 32936 ft | 492 kts | 50° |
| 2026-04-25 12:36 | 33.05148 | -74.52343 | 32936 ft | 492 kts | 50° |
| 2026-04-25 12:36 | 33.09392 | -74.45929 | 32936 ft | 492 kts | 50° |
| 2026-04-25 12:37 | 33.13630 | -74.39511 | 32935 ft | 492 kts | 50° |
| 2026-04-25 12:37 | 33.17866 | -74.33087 | 32935 ft | 492 kts | 50° |
| 2026-04-25 12:38 | 33.22103 | -74.26649 | 32934 ft | 492 kts | 50° |
| 2026-04-25 12:38 | 33.26337 | -74.20206 | 32940 ft | 496 kts | 51° |
| 2026-04-25 12:39 | 33.30618 | -74.13680 | 32940 ft | 500 kts | 51° |
| 2026-04-25 12:39 | 33.34913 | -74.07118 | 32934 ft | 501 kts | 51° |
| 2026-04-25 12:40 | 33.39208 | -74.00548 | 32933 ft | 501 kts | 51° |
| 2026-04-25 12:40 | 33.43495 | -73.93974 | 32934 ft | 501 kts | 51° |
| 2026-04-25 12:41 | 33.47773 | -73.87404 | 32934 ft | 500 kts | 51° |
| 2026-04-25 12:41 | 33.52034 | -73.80845 | 32933 ft | 498 kts | 51° |
| 2026-04-25 12:42 | 33.56288 | -73.74289 | 32934 ft | 498 kts | 51° |
| 2026-04-25 12:42 | 33.60533 | -73.67736 | 32935 ft | 497 kts | 51° |
| 2026-04-25 12:43 | 33.64771 | -73.61181 | 32934 ft | 497 kts | 51° |
| 2026-04-25 12:43 | 33.71118 | -73.51342 | 32937 ft | 497 kts | 51° |
| 2026-04-25 12:44 | 33.75352 | -73.44764 | 32934 ft | 497 kts | 51° |
| 2026-04-25 12:45 | 33.81694 | -73.34888 | 32936 ft | 498 kts | 51° |
| 2026-04-25 12:45 | 33.88012 | -73.25022 | 32935 ft | 498 kts | 51° |
| 2026-04-25 12:46 | 33.92239 | -73.18407 | 32936 ft | 498 kts | 51° |
| 2026-04-25 12:46 | 33.96462 | -73.11785 | 32935 ft | 498 kts | 51° |
| 2026-04-25 12:47 | 34.00684 | -73.05152 | 32934 ft | 499 kts | 51° |
| 2026-04-25 12:47 | 34.04905 | -72.98509 | 32936 ft | 499 kts | 50° |
| 2026-04-25 12:48 | 34.09125 | -72.91856 | 32935 ft | 499 kts | 50° |
| 2026-04-25 12:48 | 34.13343 | -72.85196 | 32935 ft | 499 kts | 50° |
| 2026-04-25 12:49 | 34.17557 | -72.78528 | 32940 ft | 499 kts | 50° |
| 2026-04-25 12:49 | 34.21767 | -72.71850 | 32946 ft | 500 kts | 50° |
| 2026-04-25 12:50 | 34.25983 | -72.65154 | 32945 ft | 500 kts | 50° |
| 2026-04-25 12:50 | 34.30193 | -72.58454 | 32944 ft | 500 kts | 50° |
| 2026-04-25 12:51 | 34.34396 | -72.51755 | 32945 ft | 500 kts | 50° |
| 2026-04-25 12:51 | 34.38599 | -72.45041 | 32945 ft | 500 kts | 50° |
| 2026-04-25 12:52 | 34.42798 | -72.38320 | 32944 ft | 500 kts | 50° |
| 2026-04-25 12:52 | 34.46989 | -72.31598 | 32946 ft | 500 kts | 50° |
| 2026-04-25 12:53 | 34.51177 | -72.24872 | 32944 ft | 500 kts | 50° |
| 2026-04-25 12:53 | 34.55337 | -72.18177 | 32943 ft | 500 kts | 50° |
| 2026-04-25 12:54 | 34.59519 | -72.11435 | 32948 ft | 500 kts | 50° |
| 2026-04-25 12:54 | 34.63688 | -72.04699 | 32953 ft | 499 kts | 50° |
| 2026-04-25 12:55 | 34.67184 | -71.99042 | 32954 ft | 500 kts | 50° |
| 2026-04-25 12:55 | 34.72028 | -71.91188 | 32953 ft | 500 kts | 50° |
| 2026-04-25 12:56 | 34.76195 | -71.84419 | 32953 ft | 500 kts | 49° |
| 2026-04-25 12:56 | 34.80356 | -71.77648 | 32955 ft | 500 kts | 49° |
| 2026-04-25 12:57 | 34.84519 | -71.70857 | 32954 ft | 500 kts | 49° |
| 2026-04-25 12:57 | 34.88673 | -71.64068 | 32955 ft | 500 kts | 49° |
| 2026-04-25 12:58 | 34.92824 | -71.57271 | 32954 ft | 500 kts | 49° |
| 2026-04-25 12:58 | 34.96970 | -71.50470 | 32952 ft | 500 kts | 49° |
| 2026-04-25 12:59 | 35.01118 | -71.43653 | 32951 ft | 500 kts | 49° |
| 2026-04-25 12:59 | 35.05255 | -71.36843 | 32953 ft | 499 kts | 49° |
| 2026-04-25 13:00 | 35.07993 | -71.32326 | 32954 ft | 499 kts | 49° |
| 2026-04-25 13:00 | 35.13487 | -71.23245 | 32954 ft | 499 kts | 49° |
| 2026-04-25 13:01 | 35.17615 | -71.16408 | 32955 ft | 499 kts | 49° |
| 2026-04-25 13:01 | 35.21739 | -71.09564 | 32964 ft | 499 kts | 49° |
| 2026-04-25 13:02 | 35.25862 | -71.02710 | 32960 ft | 500 kts | 49° |
| 2026-04-25 13:02 | 35.29948 | -70.95904 | 32959 ft | 500 kts | 49° |
| 2026-04-25 13:03 | 35.34066 | -70.89029 | 32974 ft | 500 kts | 49° |
| 2026-04-25 13:03 | 35.38181 | -70.82144 | 32958 ft | 501 kts | 48° |
| 2026-04-25 13:04 | 35.42300 | -70.75243 | 32955 ft | 501 kts | 48° |
| 2026-04-25 13:04 | 35.46410 | -70.68342 | 32954 ft | 501 kts | 48° |
| 2026-04-25 13:05 | 35.50519 | -70.61431 | 32953 ft | 501 kts | 48° |
| 2026-04-25 13:05 | 35.54622 | -70.54513 | 32955 ft | 501 kts | 48° |
| 2026-04-25 13:06 | 35.58712 | -70.47603 | 32964 ft | 500 kts | 48° |
| 2026-04-25 13:06 | 35.62800 | -70.40685 | 32963 ft | 500 kts | 47° |
| 2026-04-25 13:07 | 35.66882 | -70.33761 | 32964 ft | 500 kts | 47° |
| 2026-04-25 13:07 | 35.70959 | -70.26833 | 32962 ft | 500 kts | 47° |
| 2026-04-25 13:08 | 35.75033 | -70.19897 | 32966 ft | 500 kts | 47° |
| 2026-04-25 13:08 | 35.79101 | -70.12954 | 32965 ft | 500 kts | 47° |
| 2026-04-25 13:09 | 35.83170 | -70.05999 | 32973 ft | 499 kts | 47° |
| 2026-04-25 13:09 | 35.87194 | -69.99106 | 33027 ft | 498 kts | 47° |
| 2026-04-25 13:10 | 35.91244 | -69.92158 | 33024 ft | 499 kts | 47° |
| 2026-04-25 13:10 | 35.95299 | -69.85183 | 33023 ft | 500 kts | 47° |
| 2026-04-25 13:11 | 35.99346 | -69.78207 | 33026 ft | 501 kts | 47° |
| 2026-04-25 13:11 | 36.03402 | -69.71203 | 33030 ft | 501 kts | 47° |
| 2026-04-25 13:12 | 36.07451 | -69.64197 | 33021 ft | 501 kts | 47° |
| 2026-04-25 13:12 | 36.10158 | -69.59504 | 33024 ft | 501 kts | 47° |
| 2026-04-25 13:13 | 36.15545 | -69.50150 | 33025 ft | 501 kts | 47° |
| 2026-04-25 13:13 | 36.19581 | -69.43122 | 33026 ft | 501 kts | 47° |
| 2026-04-25 13:14 | 36.23615 | -69.36084 | 33020 ft | 501 kts | 47° |
| 2026-04-25 13:14 | 36.27645 | -69.29039 | 33020 ft | 501 kts | 46° |
| 2026-04-25 13:15 | 36.31671 | -69.21985 | 33028 ft | 500 kts | 46° |
| 2026-04-25 13:15 | 36.35685 | -69.14942 | 33027 ft | 501 kts | 46° |
| 2026-04-25 13:16 | 36.39706 | -69.07869 | 33036 ft | 501 kts | 46° |
| 2026-04-25 13:16 | 36.43717 | -69.00797 | 33021 ft | 501 kts | 46° |
| 2026-04-25 13:17 | 36.47721 | -68.93724 | 33019 ft | 501 kts | 46° |
| 2026-04-25 13:17 | 36.51724 | -68.86640 | 33016 ft | 501 kts | 46° |
| 2026-04-25 13:18 | 36.55723 | -68.79549 | 33016 ft | 501 kts | 46° |
| 2026-04-25 13:18 | 36.59047 | -68.73643 | 33020 ft | 501 kts | 46° |
| 2026-04-25 13:19 | 36.63041 | -68.66528 | 33019 ft | 501 kts | 45° |
| 2026-04-25 13:19 | 36.66363 | -68.60603 | 33018 ft | 502 kts | 45° |
| 2026-04-25 13:20 | 36.71033 | -68.52256 | 33022 ft | 503 kts | 45° |
| 2026-04-25 13:20 | 36.75031 | -68.45092 | 33034 ft | 503 kts | 45° |
| 2026-04-25 13:21 | 36.78996 | -68.37972 | 33030 ft | 503 kts | 45° |
| 2026-04-25 13:21 | 36.83012 | -68.30748 | 33027 ft | 503 kts | 45° |
| 2026-04-25 13:22 | 36.86968 | -68.23613 | 33029 ft | 503 kts | 45° |
| 2026-04-25 13:23 | 36.92927 | -68.12835 | 33026 ft | 502 kts | 45° |
| 2026-04-25 13:23 | 36.96882 | -68.05657 | 33028 ft | 502 kts | 46° |
| 2026-04-25 13:23 | 36.98593 | -68.01790 | 33022 ft | 517 kts | 57° |
| 2026-04-25 13:24 | 36.99785 | -67.97479 | 33031 ft | 530 kts | 66° |
| 2026-04-25 13:24 | 37.00437 | -67.92897 | 33027 ft | 544 kts | 77° |
| 2026-04-25 13:24 | 37.00621 | -67.88134 | 33041 ft | 551 kts | 80° |
| 2026-04-25 13:25 | 37.00810 | -67.78462 | 33035 ft | 560 kts | 81° |
| 2026-04-25 13:25 | 37.01012 | -67.68695 | 33028 ft | 560 kts | 80° |
| 2026-04-25 13:26 | 37.01281 | -67.58966 | 33028 ft | 560 kts | 79° |
| 2026-04-25 13:26 | 37.01577 | -67.49294 | 33024 ft | 560 kts | 79° |
| 2026-04-25 13:27 | 37.01867 | -67.39561 | 33025 ft | 559 kts | 80° |
| 2026-04-25 13:27 | 37.02144 | -67.29840 | 33023 ft | 559 kts | 80° |
| 2026-04-25 13:28 | 37.02409 | -67.20129 | 33029 ft | 558 kts | 80° |
| 2026-04-25 13:28 | 37.02666 | -67.10431 | 33029 ft | 558 kts | 80° |
| 2026-04-25 13:29 | 37.02915 | -67.00715 | 33025 ft | 559 kts | 80° |
| 2026-04-25 13:29 | 37.03158 | -66.90982 | 33030 ft | 560 kts | 80° |
| 2026-04-25 13:30 | 37.03508 | -66.76327 | 33027 ft | 562 kts | 81° |
| 2026-04-25 13:31 | 37.03841 | -66.61618 | 33031 ft | 564 kts | 81° |
| 2026-04-25 13:31 | 37.04053 | -66.51801 | 33029 ft | 565 kts | 81° |
| 2026-04-25 13:32 | 37.04255 | -66.42020 | 33031 ft | 566 kts | 81° |
| 2026-04-25 13:32 | 37.04450 | -66.32163 | 33030 ft | 567 kts | 81° |
| 2026-04-25 13:33 | 37.04637 | -66.22292 | 33032 ft | 567 kts | 81° |
| 2026-04-25 13:33 | 37.04818 | -66.12427 | 33030 ft | 568 kts | 81° |
| 2026-04-25 13:34 | 37.04992 | -66.02534 | 33026 ft | 568 kts | 82° |
| 2026-04-25 13:34 | 37.05155 | -65.92660 | 33021 ft | 568 kts | 83° |
| 2026-04-25 13:35 | 37.05312 | -65.82740 | 33028 ft | 570 kts | 83° |
| 2026-04-25 13:35 | 37.05460 | -65.72811 | 33028 ft | 571 kts | 83° |
| 2026-04-25 13:36 | 37.05600 | -65.62862 | 33023 ft | 572 kts | 83° |
| 2026-04-25 13:36 | 37.05732 | -65.52893 | 33017 ft | 573 kts | 83° |
| 2026-04-25 13:37 | 37.05856 | -65.42930 | 33019 ft | 573 kts | 83° |
| 2026-04-25 13:37 | 37.05971 | -65.32933 | 33022 ft | 574 kts | 84° |
| 2026-04-25 13:38 | 37.06078 | -65.22938 | 33015 ft | 574 kts | 84° |
| 2026-04-25 13:38 | 37.06178 | -65.12940 | 33020 ft | 574 kts | 84° |
| 2026-04-25 13:39 | 37.06269 | -65.02939 | 33017 ft | 574 kts | 84° |
| 2026-04-25 13:39 | 37.06351 | -64.92935 | 33020 ft | 575 kts | 84° |
| 2026-04-25 13:40 | 37.06425 | -64.82928 | 33013 ft | 575 kts | 85° |
| 2026-04-25 13:40 | 37.06491 | -64.72912 | 33000 ft | 575 kts | 85° |
| 2026-04-25 13:41 | 37.06547 | -64.62890 | 32999 ft | 576 kts | 85° |
| 2026-04-25 13:41 | 37.06597 | -64.52933 | 33007 ft | 576 kts | 85° |
| 2026-04-25 13:42 | 37.06638 | -64.42903 | 32972 ft | 577 kts | 86° |
| 2026-04-25 13:42 | 37.06669 | -64.32858 | 32972 ft | 577 kts | 86° |
| 2026-04-25 13:43 | 37.06693 | -64.22808 | 32974 ft | 577 kts | 86° |
| 2026-04-25 13:43 | 37.06706 | -64.12741 | 32978 ft | 578 kts | 86° |
| 2026-04-25 13:44 | 37.06713 | -64.02666 | 32963 ft | 578 kts | 86° |
| 2026-04-25 13:44 | 37.06712 | -63.92668 | 32971 ft | 578 kts | 87° |
| 2026-04-25 13:45 | 37.06702 | -63.82585 | 32975 ft | 579 kts | 88° |
| 2026-04-25 13:45 | 37.06684 | -63.72504 | 32969 ft | 579 kts | 88° |
| 2026-04-25 13:46 | 37.06656 | -63.62407 | 32940 ft | 581 kts | 88° |
| 2026-04-25 13:46 | 37.06620 | -63.52297 | 32937 ft | 581 kts | 88° |
| 2026-04-25 13:47 | 37.06575 | -63.42182 | 32934 ft | 581 kts | 88° |
| 2026-04-25 13:47 | 37.06520 | -63.32065 | 32935 ft | 581 kts | 88° |
| 2026-04-25 13:48 | 37.06458 | -63.21946 | 32935 ft | 581 kts | 89° |
| 2026-04-25 13:48 | 37.06388 | -63.11822 | 32936 ft | 582 kts | 89° |
| 2026-04-25 13:49 | 37.06309 | -63.01701 | 32934 ft | 582 kts | 89° |
| 2026-04-25 13:49 | 37.06222 | -62.91563 | 32924 ft | 582 kts | 89° |
| 2026-04-25 13:50 | 37.06126 | -62.81417 | 32928 ft | 583 kts | 89° |
| 2026-04-25 13:50 | 37.06020 | -62.71269 | 32925 ft | 583 kts | 90° |
| 2026-04-25 13:51 | 37.05906 | -62.61110 | 32925 ft | 583 kts | 90° |
| 2026-04-25 13:51 | 37.05780 | -62.50966 | 32920 ft | 583 kts | 90° |
| 2026-04-25 13:52 | 37.05651 | -62.40818 | 32926 ft | 583 kts | 90° |
| 2026-04-25 13:52 | 37.05513 | -62.30714 | 32926 ft | 584 kts | 90° |
| 2026-04-25 13:53 | 37.05364 | -62.20547 | 32927 ft | 584 kts | 90° |
| 2026-04-25 13:53 | 37.05206 | -62.10370 | 32926 ft | 585 kts | 90° |
| 2026-04-25 13:54 | 37.05040 | -62.00186 | 32927 ft | 585 kts | 91° |
| 2026-04-25 13:54 | 37.04865 | -61.90003 | 32922 ft | 585 kts | 91° |
| 2026-04-25 13:55 | 37.04681 | -61.79817 | 32922 ft | 585 kts | 91° |
| 2026-04-25 13:55 | 37.04488 | -61.69611 | 32898 ft | 586 kts | 92° |
| 2026-04-25 13:56 | 37.04286 | -61.59412 | 32886 ft | 586 kts | 92° |
| 2026-04-25 13:56 | 37.04075 | -61.49218 | 32886 ft | 586 kts | 92° |
| 2026-04-25 13:57 | 37.03857 | -61.39024 | 32888 ft | 586 kts | 92° |
| 2026-04-25 13:57 | 37.03629 | -61.28820 | 32885 ft | 586 kts | 92° |
| 2026-04-25 13:58 | 37.03394 | -61.18637 | 32888 ft | 586 kts | 92° |
| 2026-04-25 13:58 | 37.03148 | -61.08443 | 32896 ft | 586 kts | 92° |
| 2026-04-25 13:59 | 37.02896 | -60.98317 | 32886 ft | 586 kts | 92° |
| 2026-04-25 13:59 | 37.02633 | -60.88124 | 32887 ft | 586 kts | 93° |
| 2026-04-25 14:00 | 37.02362 | -60.77928 | 32894 ft | 586 kts | 93° |
| 2026-04-25 14:00 | 37.02082 | -60.67734 | 32886 ft | 586 kts | 93° |
| 2026-04-25 14:01 | 37.01793 | -60.57539 | 32886 ft | 586 kts | 93° |
| 2026-04-25 14:01 | 37.01495 | -60.47329 | 32901 ft | 587 kts | 94° |
| 2026-04-25 14:02 | 37.01188 | -60.37123 | 32880 ft | 587 kts | 94° |
| 2026-04-25 14:02 | 37.00873 | -60.26913 | 32893 ft | 587 kts | 94° |
| 2026-04-25 14:03 | 37.00550 | -60.16707 | 32898 ft | 587 kts | 94° |
| 2026-04-25 14:03 | 37.00218 | -60.06501 | 32901 ft | 587 kts | 94° |
| 2026-04-25 14:04 | 37.00453 | -59.96283 | 32883 ft | 588 kts | 83° |
| 2026-04-25 14:04 | 37.01859 | -59.86172 | 32814 ft | 591 kts | 79° |
| 2026-04-25 14:05 | 37.03134 | -59.77773 | 32833 ft | 591 kts | 79° |
| 2026-04-25 14:05 | 37.04852 | -59.66000 | 32835 ft | 591 kts | 79° |
| 2026-04-25 14:06 | 37.06044 | -59.57506 | 32819 ft | 592 kts | 80° |
| 2026-04-25 14:06 | 37.07449 | -59.47360 | 32813 ft | 591 kts | 80° |
| 2026-04-25 14:07 | 37.08856 | -59.37196 | 32821 ft | 593 kts | 80° |
| 2026-04-25 14:07 | 37.10262 | -59.27009 | 32812 ft | 594 kts | 80° |
| 2026-04-25 14:08 | 37.11650 | -59.16817 | 32812 ft | 595 kts | 80° |
| 2026-04-25 14:08 | 37.13039 | -59.06642 | 32807 ft | 595 kts | 81° |
| 2026-04-25 14:09 | 37.14421 | -58.96420 | 32804 ft | 596 kts | 81° |
| 2026-04-25 14:09 | 37.15796 | -58.86185 | 32800 ft | 595 kts | 81° |
| 2026-04-25 14:10 | 37.17161 | -58.75954 | 32799 ft | 596 kts | 81° |
| 2026-04-25 14:10 | 37.18523 | -58.65690 | 32794 ft | 596 kts | 81° |
| 2026-04-25 14:11 | 37.19875 | -58.55420 | 32789 ft | 597 kts | 81° |
| 2026-04-25 14:11 | 37.21216 | -58.45131 | 32795 ft | 598 kts | 81° |
| 2026-04-25 14:12 | 37.22547 | -58.34844 | 32797 ft | 598 kts | 81° |
| 2026-04-25 14:12 | 37.23876 | -58.24523 | 32792 ft | 599 kts | 81° |
| 2026-04-25 14:13 | 37.25190 | -58.14258 | 32785 ft | 599 kts | 81° |
| 2026-04-25 14:13 | 37.26501 | -58.03932 | 32788 ft | 599 kts | 82° |
| 2026-04-25 14:14 | 37.27803 | -57.93595 | 32785 ft | 599 kts | 82° |
| 2026-04-25 14:14 | 37.29095 | -57.83262 | 32787 ft | 599 kts | 82° |
| 2026-04-25 14:15 | 37.30380 | -57.72926 | 32788 ft | 599 kts | 82° |
| 2026-04-25 14:15 | 37.31656 | -57.62578 | 32775 ft | 600 kts | 82° |
| 2026-04-25 14:16 | 37.32923 | -57.52228 | 32781 ft | 600 kts | 82° |
| 2026-04-25 14:16 | 37.34182 | -57.41861 | 32776 ft | 600 kts | 82° |
| 2026-04-25 14:17 | 37.35433 | -57.31492 | 32777 ft | 600 kts | 82° |
| 2026-04-25 14:17 | 37.36674 | -57.21129 | 32781 ft | 599 kts | 83° |
| 2026-04-25 14:18 | 37.37906 | -57.10756 | 32778 ft | 599 kts | 83° |
| 2026-04-25 14:18 | 37.39118 | -57.00463 | 32775 ft | 599 kts | 83° |
| 2026-04-25 14:19 | 37.40329 | -56.90104 | 32778 ft | 599 kts | 83° |
| 2026-04-25 14:19 | 37.41530 | -56.79748 | 32775 ft | 598 kts | 83° |
| 2026-04-25 14:20 | 37.42722 | -56.69394 | 32779 ft | 598 kts | 83° |
| 2026-04-25 14:20 | 37.43905 | -56.59043 | 32780 ft | 597 kts | 83° |
| 2026-04-25 14:21 | 37.45078 | -56.48694 | 32773 ft | 597 kts | 83° |
| 2026-04-25 14:21 | 37.46240 | -56.38346 | 32765 ft | 597 kts | 83° |
| 2026-04-25 14:22 | 37.47394 | -56.27992 | 32768 ft | 596 kts | 83° |
| 2026-04-25 14:22 | 37.48537 | -56.17650 | 32770 ft | 596 kts | 83° |
| 2026-04-25 14:23 | 37.49672 | -56.07304 | 32759 ft | 596 kts | 83° |
| 2026-04-25 14:23 | 37.50796 | -55.96955 | 32748 ft | 596 kts | 84° |
| 2026-04-25 14:24 | 37.51912 | -55.86604 | 32751 ft | 596 kts | 84° |
| 2026-04-25 14:24 | 37.53021 | -55.76239 | 32746 ft | 596 kts | 84° |
| 2026-04-25 14:25 | 37.54120 | -55.65883 | 32737 ft | 596 kts | 84° |
| 2026-04-25 14:25 | 37.55209 | -55.55528 | 32742 ft | 596 kts | 84° |
| 2026-04-25 14:26 | 37.56281 | -55.45238 | 32740 ft | 596 kts | 84° |
| 2026-04-25 14:26 | 37.57352 | -55.34872 | 32739 ft | 596 kts | 84° |
| 2026-04-25 14:27 | 37.58418 | -55.24479 | 32742 ft | 596 kts | 84° |
| 2026-04-25 14:27 | 37.59471 | -55.14101 | 32731 ft | 597 kts | 84° |
| 2026-04-25 14:28 | 37.60516 | -55.03709 | 32732 ft | 597 kts | 84° |
| 2026-04-25 14:28 | 37.61554 | -54.93307 | 32723 ft | 598 kts | 85° |
| 2026-04-25 14:29 | 37.62583 | -54.82893 | 32735 ft | 598 kts | 85° |
| 2026-04-25 14:29 | 37.63603 | -54.72461 | 32726 ft | 599 kts | 85° |
| 2026-04-25 14:30 | 37.64617 | -54.62025 | 32715 ft | 599 kts | 85° |
| 2026-04-25 14:30 | 37.66112 | -54.46432 | 32728 ft | 599 kts | 85° |
| 2026-04-25 14:31 | 37.67101 | -54.35986 | 32729 ft | 599 kts | 85° |
| 2026-04-25 14:31 | 37.68082 | -54.25527 | 32720 ft | 599 kts | 85° |
| 2026-04-25 14:32 | 37.69053 | -54.15075 | 32712 ft | 599 kts | 85° |
| 2026-04-25 14:32 | 37.70015 | -54.04624 | 32720 ft | 599 kts | 85° |
| 2026-04-25 14:33 | 37.70969 | -53.94153 | 32709 ft | 600 kts | 85° |
| 2026-04-25 14:33 | 37.71912 | -53.83685 | 32720 ft | 600 kts | 85° |
| 2026-04-25 14:34 | 37.72848 | -53.73212 | 32715 ft | 600 kts | 85° |
| 2026-04-25 14:34 | 37.73774 | -53.62736 | 32716 ft | 600 kts | 85° |
| 2026-04-25 14:35 | 37.74686 | -53.52325 | 32718 ft | 600 kts | 86° |
| 2026-04-25 14:35 | 37.75593 | -53.41839 | 32703 ft | 600 kts | 86° |
| 2026-04-25 14:36 | 37.76492 | -53.31343 | 32698 ft | 601 kts | 86° |
| 2026-04-25 14:36 | 37.77382 | -53.20839 | 32694 ft | 601 kts | 86° |
| 2026-04-25 14:37 | 37.78262 | -53.10329 | 32703 ft | 601 kts | 86° |
| 2026-04-25 14:37 | 37.79135 | -52.99802 | 32706 ft | 603 kts | 86° |
| 2026-04-25 14:38 | 37.80002 | -52.89251 | 32702 ft | 604 kts | 86° |
| 2026-04-25 14:38 | 37.80861 | -52.78669 | 32700 ft | 606 kts | 87° |
| 2026-04-25 14:39 | 37.81713 | -52.68046 | 32695 ft | 607 kts | 87° |
| 2026-04-25 14:39 | 37.82552 | -52.57486 | 32760 ft | 607 kts | 87° |
| 2026-04-25 14:40 | 37.83384 | -52.46859 | 32859 ft | 607 kts | 87° |
| 2026-04-25 14:40 | 37.84208 | -52.36198 | 32800 ft | 611 kts | 88° |
| 2026-04-25 14:41 | 37.85027 | -52.25484 | 32717 ft | 614 kts | 88° |
| 2026-04-25 14:41 | 37.85843 | -52.14713 | 32708 ft | 614 kts | 88° |
| 2026-04-25 14:42 | 37.86381 | -52.07531 | 32716 ft | 614 kts | 88° |
| 2026-04-25 14:42 | 37.87442 | -51.93183 | 32720 ft | 614 kts | 88° |
| 2026-04-25 14:43 | 37.88225 | -51.82430 | 32716 ft | 614 kts | 88° |
| 2026-04-25 14:43 | 37.89001 | -51.71645 | 32721 ft | 613 kts | 88° |
| 2026-04-25 14:44 | 37.89764 | -51.60906 | 32717 ft | 613 kts | 88° |
| 2026-04-25 14:44 | 37.90517 | -51.50165 | 32706 ft | 611 kts | 88° |
| 2026-04-25 14:45 | 37.91257 | -51.39459 | 32716 ft | 609 kts | 88° |
| 2026-04-25 14:45 | 37.91986 | -51.28782 | 32714 ft | 608 kts | 88° |
| 2026-04-25 14:46 | 37.92702 | -51.18131 | 32718 ft | 606 kts | 88° |
| 2026-04-25 14:46 | 37.93407 | -51.07508 | 32708 ft | 604 kts | 88° |
| 2026-04-25 14:47 | 37.93872 | -51.00421 | 32715 ft | 603 kts | 88° |
| 2026-04-25 14:47 | 37.94784 | -50.86341 | 32707 ft | 601 kts | 88° |
| 2026-04-25 14:48 | 37.95455 | -50.75805 | 32717 ft | 600 kts | 89° |
| 2026-04-25 14:48 | 37.96116 | -50.65269 | 32713 ft | 598 kts | 89° |
| 2026-04-25 14:49 | 37.96766 | -50.54767 | 32717 ft | 597 kts | 89° |
| 2026-04-25 14:49 | 37.97401 | -50.44347 | 32718 ft | 597 kts | 89° |
| 2026-04-25 14:50 | 37.98031 | -50.33848 | 32713 ft | 597 kts | 89° |
| 2026-04-25 14:50 | 37.98652 | -50.23358 | 32718 ft | 597 kts | 89° |
| 2026-04-25 14:51 | 37.99165 | -50.14562 | 32715 ft | 597 kts | 89° |
| 2026-04-25 14:51 | 37.99766 | -50.04140 | 32712 ft | 597 kts | 89° |
| 2026-04-25 14:52 | 38.00779 | -49.93651 | 32713 ft | 601 kts | 82° |
| 2026-04-25 14:52 | 38.02067 | -49.84921 | 32726 ft | 601 kts | 81° |
| 2026-04-25 14:53 | 38.03881 | -49.72811 | 32707 ft | 602 kts | 81° |
| 2026-04-25 14:53 | 38.05382 | -49.62371 | 32720 ft | 601 kts | 82° |
| 2026-04-25 14:54 | 38.06845 | -49.51911 | 32719 ft | 601 kts | 82° |
| 2026-04-25 14:54 | 38.08292 | -49.41484 | 32722 ft | 600 kts | 82° |
| 2026-04-25 14:55 | 38.09735 | -49.31062 | 32722 ft | 599 kts | 82° |
| 2026-04-25 14:55 | 38.11170 | -49.20648 | 32711 ft | 597 kts | 82° |
| 2026-04-25 14:56 | 38.12590 | -49.10273 | 32707 ft | 596 kts | 83° |
| 2026-04-25 14:56 | 38.13997 | -48.99910 | 32694 ft | 594 kts | 83° |
| 2026-04-25 14:57 | 38.15391 | -48.89572 | 32710 ft | 593 kts | 83° |
| 2026-04-25 14:57 | 38.16775 | -48.79244 | 32708 ft | 592 kts | 83° |
| 2026-04-25 14:58 | 38.18145 | -48.68944 | 32707 ft | 590 kts | 83° |
| 2026-04-25 14:58 | 38.19503 | -48.58662 | 32702 ft | 589 kts | 83° |
| 2026-04-25 14:59 | 38.20850 | -48.48390 | 32704 ft | 589 kts | 83° |
| 2026-04-25 14:59 | 38.22187 | -48.38125 | 32704 ft | 588 kts | 83° |
| 2026-04-25 15:00 | 38.23516 | -48.27853 | 32711 ft | 588 kts | 83° |
| 2026-04-25 15:00 | 38.24834 | -48.17586 | 32717 ft | 588 kts | 83° |
| 2026-04-25 15:01 | 38.26145 | -48.07307 | 32722 ft | 588 kts | 83° |
| 2026-04-25 15:01 | 38.27447 | -47.97022 | 32709 ft | 589 kts | 83° |
| 2026-04-25 15:02 | 38.28732 | -47.86793 | 32708 ft | 589 kts | 84° |
| 2026-04-25 15:02 | 38.30018 | -47.76486 | 32720 ft | 590 kts | 84° |
| 2026-04-25 15:03 | 38.31296 | -47.66163 | 32703 ft | 590 kts | 84° |
| 2026-04-25 15:03 | 38.32566 | -47.55827 | 32724 ft | 591 kts | 84° |
| 2026-04-25 15:04 | 38.33829 | -47.45482 | 32714 ft | 591 kts | 84° |
| 2026-04-25 15:04 | 38.35082 | -47.35134 | 32731 ft | 591 kts | 84° |
| 2026-04-25 15:05 | 38.36324 | -47.24785 | 32712 ft | 591 kts | 84° |
| 2026-04-25 15:06 | 38.38172 | -47.09267 | 32722 ft | 589 kts | 84° |
| 2026-04-25 15:06 | 38.39388 | -46.98950 | 32725 ft | 588 kts | 85° |
| 2026-04-25 15:07 | 38.40593 | -46.88649 | 32735 ft | 587 kts | 85° |
| 2026-04-25 15:07 | 38.41786 | -46.78373 | 32726 ft | 585 kts | 85° |
| 2026-04-25 15:08 | 38.42959 | -46.68178 | 32731 ft | 583 kts | 85° |
| 2026-04-25 15:08 | 38.44128 | -46.57949 | 32726 ft | 582 kts | 85° |
| 2026-04-25 15:09 | 38.45284 | -46.47739 | 32733 ft | 581 kts | 85° |
| 2026-04-25 15:09 | 38.46993 | -46.32504 | 32743 ft | 579 kts | 85° |
| 2026-04-25 15:10 | 38.48122 | -46.22334 | 32737 ft | 578 kts | 85° |
| 2026-04-25 15:11 | 38.49798 | -46.07092 | 32741 ft | 578 kts | 85° |
| 2026-04-25 15:11 | 38.50905 | -45.96925 | 32742 ft | 578 kts | 85° |
| 2026-04-25 15:12 | 38.52545 | -45.81685 | 32749 ft | 578 kts | 85° |
| 2026-04-25 15:12 | 38.53272 | -45.74878 | 32748 ft | 578 kts | 85° |
| 2026-04-25 15:13 | 38.55238 | -45.56259 | 32771 ft | 577 kts | 86° |
| 2026-04-25 15:14 | 38.56298 | -45.46082 | 32774 ft | 578 kts | 86° |
| 2026-04-25 15:14 | 38.57352 | -45.35894 | 32777 ft | 578 kts | 86° |
| 2026-04-25 15:15 | 38.58399 | -45.25701 | 32777 ft | 578 kts | 86° |
| 2026-04-25 15:15 | 38.59428 | -45.15578 | 32784 ft | 578 kts | 86° |
| 2026-04-25 15:16 | 38.60456 | -45.05382 | 32781 ft | 577 kts | 86° |
| 2026-04-25 15:16 | 38.61975 | -44.90136 | 32786 ft | 576 kts | 86° |
| 2026-04-25 15:17 | 38.63473 | -44.74896 | 32791 ft | 574 kts | 86° |
| 2026-04-25 15:18 | 38.64456 | -44.64773 | 32820 ft | 573 kts | 86° |
| 2026-04-25 15:18 | 38.65914 | -44.49607 | 32829 ft | 572 kts | 86° |
| 2026-04-25 15:19 | 38.66556 | -44.42852 | 32833 ft | 572 kts | 86° |
| 2026-04-25 15:19 | 38.67822 | -44.29415 | 32833 ft | 571 kts | 86° |
| 2026-04-25 15:20 | 38.68763 | -44.19320 | 32833 ft | 571 kts | 86° |
| 2026-04-25 15:20 | 38.69694 | -44.09231 | 32844 ft | 570 kts | 86° |
| 2026-04-25 15:21 | 38.70615 | -43.99144 | 32847 ft | 571 kts | 86° |
| 2026-04-25 15:21 | 38.71530 | -43.89039 | 32839 ft | 570 kts | 86° |
| 2026-04-25 15:22 | 38.72435 | -43.78959 | 32848 ft | 569 kts | 86° |
| 2026-04-25 15:22 | 38.73327 | -43.68905 | 32855 ft | 568 kts | 86° |
| 2026-04-25 15:23 | 38.74211 | -43.58853 | 32852 ft | 567 kts | 86° |
| 2026-04-25 15:23 | 38.75086 | -43.48807 | 32862 ft | 567 kts | 87° |
| 2026-04-25 15:24 | 38.75952 | -43.38744 | 32860 ft | 568 kts | 87° |
| 2026-04-25 15:24 | 38.76520 | -43.32081 | 32858 ft | 568 kts | 87° |
| 2026-04-25 15:25 | 38.77654 | -43.18677 | 32864 ft | 568 kts | 87° |
| 2026-04-25 15:25 | 38.78499 | -43.08549 | 32871 ft | 568 kts | 87° |
| 2026-04-25 15:26 | 38.79326 | -42.98551 | 32871 ft | 568 kts | 87° |
| 2026-04-25 15:26 | 38.80148 | -42.88495 | 32875 ft | 568 kts | 87° |
| 2026-04-25 15:27 | 38.80963 | -42.78420 | 32881 ft | 567 kts | 87° |
| 2026-04-25 15:28 | 38.82169 | -42.63311 | 32884 ft | 568 kts | 87° |
| 2026-04-25 15:28 | 38.82961 | -42.53240 | 32886 ft | 568 kts | 87° |
| 2026-04-25 15:29 | 38.83748 | -42.43147 | 32884 ft | 568 kts | 87° |
| 2026-04-25 15:29 | 38.84523 | -42.33081 | 32887 ft | 567 kts | 87° |
| 2026-04-25 15:30 | 38.85288 | -42.23019 | 32898 ft | 567 kts | 87° |
| 2026-04-25 15:30 | 38.86045 | -42.12956 | 32907 ft | 567 kts | 87° |
| 2026-04-25 15:31 | 38.86791 | -42.02903 | 32901 ft | 566 kts | 87° |
| 2026-04-25 15:31 | 38.87530 | -41.92835 | 32910 ft | 565 kts | 87° |
| 2026-04-25 15:32 | 38.88253 | -41.82864 | 32912 ft | 564 kts | 87° |
| 2026-04-25 15:32 | 38.88976 | -41.72784 | 32916 ft | 562 kts | 87° |
| 2026-04-25 15:33 | 38.90031 | -41.57859 | 32912 ft | 561 kts | 87° |
| 2026-04-25 15:33 | 38.90724 | -41.47897 | 32926 ft | 560 kts | 87° |
| 2026-04-25 15:34 | 38.91408 | -41.37928 | 32928 ft | 560 kts | 87° |
| 2026-04-25 15:34 | 38.91862 | -41.31248 | 32928 ft | 561 kts | 87° |
| 2026-04-25 15:35 | 38.92972 | -41.14668 | 32938 ft | 560 kts | 87° |
| 2026-04-25 15:36 | 38.93956 | -40.99697 | 32942 ft | 561 kts | 87° |
| 2026-04-25 15:36 | 38.94599 | -40.89716 | 32939 ft | 560 kts | 88° |
| 2026-04-25 15:37 | 38.95234 | -40.79740 | 32946 ft | 560 kts | 88° |
| 2026-04-25 15:37 | 38.95859 | -40.69780 | 32942 ft | 559 kts | 88° |
| 2026-04-25 15:38 | 38.96475 | -40.59838 | 32947 ft | 557 kts | 88° |
| 2026-04-25 15:38 | 38.97081 | -40.49916 | 32953 ft | 556 kts | 88° |
| 2026-04-25 15:39 | 38.97678 | -40.39997 | 32956 ft | 556 kts | 88° |
| 2026-04-25 15:39 | 38.98262 | -40.30169 | 32954 ft | 555 kts | 88° |
| 2026-04-25 15:40 | 38.98746 | -40.21892 | 32957 ft | 555 kts | 88° |
| 2026-04-25 15:40 | 38.99409 | -40.10400 | 32960 ft | 554 kts | 88° |
| 2026-04-25 15:41 | 38.99972 | -40.00507 | 32964 ft | 554 kts | 88° |
| 2026-04-25 15:41 | 39.00449 | -39.90614 | 32982 ft | 553 kts | 89° |
| 2026-04-25 15:42 | 39.00834 | -39.80763 | 32972 ft | 552 kts | 89° |
| 2026-04-25 15:42 | 39.01210 | -39.70922 | 32970 ft | 550 kts | 89° |
| 2026-04-25 15:43 | 39.01595 | -39.61067 | 33146 ft | 553 kts | 89° |
| 2026-04-25 15:43 | 39.01789 | -39.56132 | 33477 ft | 551 kts | 89° |
| 2026-04-25 15:43 | 39.01982 | -39.51223 | 33830 ft | 548 kts | 89° |
| 2026-04-25 15:44 | 39.02171 | -39.46332 | 34152 ft | 547 kts | 89° |
| 2026-04-25 15:44 | 39.02358 | -39.41456 | 34446 ft | 545 kts | 89° |
| 2026-04-25 15:44 | 39.02542 | -39.36585 | 34689 ft | 545 kts | 89° |
| 2026-04-25 15:44 | 39.02724 | -39.31701 | 34893 ft | 546 kts | 89° |
| 2026-04-25 15:45 | 39.03079 | -39.21927 | 35000 ft | 547 kts | 89° |
| 2026-04-25 15:45 | 39.03368 | -39.13821 | 35003 ft | 544 kts | 89° |
| 2026-04-25 15:46 | 39.03763 | -39.02512 | 35001 ft | 540 kts | 89° |
| 2026-04-25 15:46 | 39.04090 | -38.92885 | 35005 ft | 538 kts | 89° |
| 2026-04-25 15:47 | 39.04407 | -38.83344 | 35017 ft | 538 kts | 89° |
| 2026-04-25 15:47 | 39.04719 | -38.73730 | 35019 ft | 538 kts | 89° |
| 2026-04-25 15:48 | 39.05022 | -38.64096 | 35027 ft | 540 kts | 89° |
| 2026-04-25 15:48 | 39.05319 | -38.54433 | 35022 ft | 541 kts | 89° |
| 2026-04-25 15:49 | 39.05608 | -38.44745 | 35022 ft | 542 kts | 89° |
| 2026-04-25 15:49 | 39.05889 | -38.35046 | 35029 ft | 543 kts | 89° |
| 2026-04-25 15:50 | 39.06164 | -38.25329 | 35029 ft | 543 kts | 89° |
| 2026-04-25 15:50 | 39.06431 | -38.15620 | 35031 ft | 543 kts | 89° |
| 2026-04-25 15:51 | 39.06645 | -38.07561 | 35032 ft | 543 kts | 89° |
| 2026-04-25 15:51 | 39.06937 | -37.96218 | 35033 ft | 542 kts | 89° |
| 2026-04-25 15:52 | 39.07177 | -37.86539 | 35040 ft | 540 kts | 89° |
| 2026-04-25 15:52 | 39.07410 | -37.76890 | 35031 ft | 538 kts | 89° |
| 2026-04-25 15:53 | 39.07635 | -37.67278 | 35033 ft | 536 kts | 89° |
| 2026-04-25 15:53 | 39.07850 | -37.57684 | 35035 ft | 535 kts | 89° |
| 2026-04-25 15:54 | 39.08057 | -37.48117 | 35046 ft | 534 kts | 89° |
| 2026-04-25 15:54 | 39.08256 | -37.38556 | 35047 ft | 534 kts | 89° |
| 2026-04-25 15:55 | 39.08446 | -37.29060 | 35045 ft | 534 kts | 89° |
| 2026-04-25 15:55 | 39.08628 | -37.19497 | 35048 ft | 535 kts | 89° |
| 2026-04-25 15:56 | 39.08803 | -37.09927 | 35049 ft | 535 kts | 89° |
| 2026-04-25 15:56 | 39.08971 | -37.00353 | 35056 ft | 535 kts | 89° |
| 2026-04-25 15:57 | 39.09131 | -36.90777 | 35056 ft | 535 kts | 90° |
| 2026-04-25 15:57 | 39.09283 | -36.81197 | 35056 ft | 535 kts | 90° |
| 2026-04-25 15:58 | 39.09428 | -36.71616 | 35056 ft | 535 kts | 90° |
| 2026-04-25 15:58 | 39.09565 | -36.62038 | 35055 ft | 535 kts | 90° |
| 2026-04-25 15:59 | 39.09694 | -36.52463 | 35057 ft | 535 kts | 90° |
| 2026-04-25 15:59 | 39.09814 | -36.42890 | 35063 ft | 534 kts | 90° |
| 2026-04-25 16:00 | 39.09891 | -36.36485 | 35066 ft | 534 kts | 90° |
| 2026-04-25 16:00 | 39.10033 | -36.23754 | 35066 ft | 534 kts | 90° |
| 2026-04-25 16:01 | 39.10130 | -36.14207 | 35063 ft | 534 kts | 90° |
| 2026-04-25 16:01 | 39.10219 | -36.04653 | 35066 ft | 534 kts | 90° |
| 2026-04-25 16:02 | 39.10300 | -35.95089 | 35066 ft | 534 kts | 90° |
| 2026-04-25 16:02 | 39.10374 | -35.85543 | 35074 ft | 533 kts | 90° |
| 2026-04-25 16:03 | 39.10441 | -35.76016 | 35067 ft | 532 kts | 90° |
| 2026-04-25 16:03 | 39.10498 | -35.66477 | 35069 ft | 532 kts | 90° |
| 2026-04-25 16:04 | 39.10547 | -35.57009 | 35076 ft | 532 kts | 90° |
| 2026-04-25 16:04 | 39.10590 | -35.47434 | 35076 ft | 531 kts | 90° |
| 2026-04-25 16:05 | 39.10625 | -35.37984 | 35077 ft | 531 kts | 90° |
| 2026-04-25 16:06 | 39.10663 | -35.23716 | 35071 ft | 531 kts | 90° |
| 2026-04-25 16:06 | 39.10678 | -35.14207 | 35081 ft | 531 kts | 90° |
| 2026-04-25 16:07 | 39.10685 | -35.04632 | 35088 ft | 531 kts | 90° |
| 2026-04-25 16:07 | 39.10686 | -34.95174 | 35078 ft | 531 kts | 90° |
| 2026-04-25 16:08 | 39.10678 | -34.85652 | 35080 ft | 531 kts | 90° |
| 2026-04-25 16:08 | 39.10663 | -34.76140 | 35079 ft | 531 kts | 90° |
| 2026-04-25 16:09 | 39.10639 | -34.66618 | 35089 ft | 531 kts | 90° |
| 2026-04-25 16:09 | 39.10608 | -34.57116 | 35075 ft | 531 kts | 90° |
| 2026-04-25 16:10 | 39.10569 | -34.47594 | 35077 ft | 531 kts | 90° |
| 2026-04-25 16:10 | 39.10522 | -34.38078 | 35076 ft | 532 kts | 90° |
| 2026-04-25 16:11 | 39.10468 | -34.28563 | 35098 ft | 531 kts | 90° |
| 2026-04-25 16:11 | 39.10406 | -34.19118 | 35082 ft | 531 kts | 90° |
| 2026-04-25 16:12 | 39.10337 | -34.09614 | 35087 ft | 530 kts | 90° |
| 2026-04-25 16:12 | 39.10259 | -34.00116 | 35096 ft | 530 kts | 90° |
| 2026-04-25 16:13 | 39.10174 | -33.90625 | 35094 ft | 530 kts | 90° |
| 2026-04-25 16:13 | 39.10082 | -33.81140 | 35096 ft | 530 kts | 90° |
| 2026-04-25 16:14 | 39.09983 | -33.71654 | 35097 ft | 530 kts | 90° |
| 2026-04-25 16:14 | 39.09875 | -33.62178 | 35081 ft | 529 kts | 90° |
| 2026-04-25 16:15 | 39.09759 | -33.52715 | 35088 ft | 528 kts | 90° |
| 2026-04-25 16:15 | 39.09636 | -33.43254 | 35094 ft | 527 kts | 90° |
| 2026-04-25 16:16 | 39.09506 | -33.33818 | 35096 ft | 527 kts | 90° |
| 2026-04-25 16:16 | 39.09392 | -33.25983 | 35095 ft | 526 kts | 90° |
| 2026-04-25 16:17 | 39.09250 | -33.16574 | 35095 ft | 525 kts | 90° |
| 2026-04-25 16:17 | 39.09098 | -33.07174 | 35101 ft | 525 kts | 90° |
| 2026-04-25 16:18 | 39.08940 | -32.97781 | 35103 ft | 525 kts | 90° |
| 2026-04-25 16:18 | 39.08772 | -32.88387 | 35101 ft | 524 kts | 90° |
| 2026-04-25 16:19 | 39.08599 | -32.79012 | 35103 ft | 524 kts | 90° |
| 2026-04-25 16:19 | 39.08419 | -32.69649 | 35102 ft | 523 kts | 90° |
| 2026-04-25 16:20 | 39.08134 | -32.55608 | 35101 ft | 523 kts | 90° |
| 2026-04-25 16:21 | 39.07833 | -32.41586 | 35101 ft | 522 kts | 90° |
| 2026-04-25 16:21 | 39.07623 | -32.32248 | 35103 ft | 522 kts | 90° |
| 2026-04-25 16:22 | 39.07408 | -32.22981 | 35100 ft | 521 kts | 90° |
| 2026-04-25 16:22 | 39.07183 | -32.13649 | 35102 ft | 521 kts | 90° |
| 2026-04-25 16:23 | 39.06951 | -32.04336 | 35102 ft | 520 kts | 90° |
| 2026-04-25 16:23 | 39.06712 | -31.95025 | 35103 ft | 520 kts | 90° |
| 2026-04-25 16:24 | 39.06465 | -31.85731 | 35104 ft | 519 kts | 90° |
| 2026-04-25 16:24 | 39.06212 | -31.76466 | 35098 ft | 518 kts | 90° |
| 2026-04-25 16:25 | 39.05952 | -31.67203 | 35103 ft | 517 kts | 90° |
| 2026-04-25 16:25 | 39.05686 | -31.57970 | 35100 ft | 516 kts | 90° |
| 2026-04-25 16:26 | 39.05414 | -31.48750 | 35102 ft | 515 kts | 90° |
| 2026-04-25 16:26 | 39.05133 | -31.39539 | 35102 ft | 515 kts | 90° |
| 2026-04-25 16:27 | 39.04846 | -31.30332 | 35102 ft | 515 kts | 90° |
| 2026-04-25 16:27 | 39.04551 | -31.21120 | 35102 ft | 515 kts | 90° |
| 2026-04-25 16:28 | 39.04249 | -31.11912 | 35101 ft | 515 kts | 90° |
| 2026-04-25 16:28 | 39.03940 | -31.02705 | 35101 ft | 515 kts | 90° |
| 2026-04-25 16:29 | 39.03624 | -30.93498 | 35103 ft | 515 kts | 90° |
| 2026-04-25 16:29 | 39.03299 | -30.84283 | 35101 ft | 516 kts | 90° |
| 2026-04-25 16:30 | 39.03025 | -30.76631 | 35105 ft | 516 kts | 90° |
| 2026-04-25 16:30 | 39.02630 | -30.65871 | 35102 ft | 515 kts | 90° |
| 2026-04-25 16:31 | 39.02285 | -30.56664 | 35103 ft | 515 kts | 90° |
| 2026-04-25 16:31 | 39.01934 | -30.47482 | 35099 ft | 514 kts | 90° |
| 2026-04-25 16:32 | 39.01577 | -30.38355 | 35102 ft | 514 kts | 90° |
| 2026-04-25 16:32 | 39.01211 | -30.29180 | 35099 ft | 514 kts | 90° |
| 2026-04-25 16:33 | 39.00838 | -30.20020 | 35101 ft | 513 kts | 90° |
| 2026-04-25 16:33 | 39.00460 | -30.10855 | 35103 ft | 513 kts | 91° |
| 2026-04-25 16:34 | 39.00175 | -30.01702 | 35097 ft | 512 kts | 86° |
| 2026-04-25 16:34 | 39.00941 | -29.92658 | 35106 ft | 506 kts | 76° |
| 2026-04-25 16:35 | 39.02279 | -29.83771 | 35103 ft | 506 kts | 76° |
| 2026-04-25 16:35 | 39.03594 | -29.74884 | 35100 ft | 506 kts | 76° |
| 2026-04-25 16:36 | 39.04873 | -29.65981 | 35100 ft | 505 kts | 77° |
| 2026-04-25 16:36 | 39.06128 | -29.57089 | 35100 ft | 505 kts | 77° |
| 2026-04-25 16:37 | 39.07374 | -29.48193 | 35101 ft | 505 kts | 77° |
| 2026-04-25 16:37 | 39.08614 | -29.39294 | 35101 ft | 505 kts | 77° |
| 2026-04-25 16:38 | 39.09850 | -29.30393 | 35101 ft | 505 kts | 77° |
| 2026-04-25 16:38 | 39.11078 | -29.21490 | 35103 ft | 505 kts | 77° |
| 2026-04-25 16:39 | 39.12293 | -29.12643 | 35103 ft | 505 kts | 77° |
| 2026-04-25 16:39 | 39.13507 | -29.03736 | 35104 ft | 505 kts | 77° |
| 2026-04-25 16:40 | 39.14715 | -28.94832 | 35101 ft | 504 kts | 78° |
| 2026-04-25 16:40 | 39.15916 | -28.85927 | 35102 ft | 504 kts | 78° |
| 2026-04-25 16:41 | 39.17108 | -28.77026 | 35100 ft | 504 kts | 78° |
| 2026-04-25 16:41 | 39.18882 | -28.63685 | 35106 ft | 503 kts | 78° |
| 2026-04-25 16:42 | 39.20054 | -28.54799 | 35110 ft | 503 kts | 78° |
| 2026-04-25 16:42 | 39.21219 | -28.45916 | 35113 ft | 502 kts | 78° |
| 2026-04-25 16:43 | 39.22377 | -28.37040 | 35109 ft | 502 kts | 78° |
| 2026-04-25 16:43 | 39.23527 | -28.28158 | 35113 ft | 501 kts | 78° |
| 2026-04-25 16:44 | 39.24669 | -28.19287 | 35110 ft | 501 kts | 78° |
| 2026-04-25 16:44 | 39.25805 | -28.10415 | 35112 ft | 501 kts | 78° |
| 2026-04-25 16:45 | 39.26932 | -28.01553 | 35115 ft | 500 kts | 79° |
| 2026-04-25 16:45 | 39.28041 | -27.92755 | 35116 ft | 500 kts | 80° |
| 2026-04-25 16:46 | 39.29165 | -27.83898 | 35119 ft | 500 kts | 79° |
| 2026-04-25 16:46 | 39.29906 | -27.77967 | 35118 ft | 501 kts | 80° |
| 2026-04-25 16:47 | 39.31371 | -27.66126 | 35124 ft | 502 kts | 80° |
| 2026-04-25 16:47 | 39.32465 | -27.57202 | 35119 ft | 504 kts | 80° |
| 2026-04-25 16:48 | 39.33560 | -27.48246 | 35118 ft | 505 kts | 80° |
| 2026-04-25 16:48 | 39.34651 | -27.39279 | 35122 ft | 506 kts | 81° |
| 2026-04-25 16:49 | 39.35737 | -27.30288 | 35132 ft | 507 kts | 81° |
| 2026-04-25 16:49 | 39.36819 | -27.21266 | 35131 ft | 508 kts | 81° |
| 2026-04-25 16:50 | 39.37895 | -27.12233 | 35127 ft | 509 kts | 81° |
| 2026-04-25 16:50 | 39.38965 | -27.03189 | 35131 ft | 510 kts | 82° |
| 2026-04-25 16:51 | 39.40033 | -26.94099 | 35127 ft | 511 kts | 82° |
| 2026-04-25 16:51 | 39.40744 | -26.88015 | 35131 ft | 512 kts | 82° |
| 2026-04-25 16:52 | 39.42152 | -26.75875 | 35125 ft | 513 kts | 83° |
| 2026-04-25 16:52 | 39.43204 | -26.66729 | 35126 ft | 514 kts | 83° |
| 2026-04-25 16:53 | 39.44773 | -26.52966 | 35129 ft | 516 kts | 83° |
| 2026-04-25 16:54 | 39.45807 | -26.43824 | 35133 ft | 517 kts | 84° |
| 2026-04-25 16:54 | 39.46844 | -26.34599 | 35126 ft | 519 kts | 84° |
| 2026-04-25 16:55 | 39.47874 | -26.25350 | 35120 ft | 519 kts | 84° |
| 2026-04-25 16:55 | 39.48897 | -26.16089 | 35121 ft | 520 kts | 84° |
| 2026-04-25 16:56 | 39.49914 | -26.06821 | 35118 ft | 520 kts | 85° |
| 2026-04-25 16:56 | 39.50923 | -25.97549 | 35118 ft | 520 kts | 85° |
| 2026-04-25 16:57 | 39.51925 | -25.88274 | 35117 ft | 520 kts | 85° |
| 2026-04-25 16:57 | 39.52921 | -25.78981 | 35120 ft | 521 kts | 85° |
| 2026-04-25 16:58 | 39.53909 | -25.69687 | 35124 ft | 521 kts | 85° |
| 2026-04-25 16:58 | 39.54891 | -25.60384 | 35120 ft | 521 kts | 85° |
| 2026-04-25 16:59 | 39.55868 | -25.51070 | 35121 ft | 522 kts | 85° |
| 2026-04-25 16:59 | 39.56837 | -25.41762 | 35117 ft | 522 kts | 85° |
| 2026-04-25 17:00 | 39.57798 | -25.32439 | 35116 ft | 522 kts | 85° |
| 2026-04-25 17:00 | 39.58592 | -25.24680 | 35102 ft | 522 kts | 85° |
| 2026-04-25 17:01 | 39.59541 | -25.15340 | 35102 ft | 523 kts | 85° |
| 2026-04-25 17:01 | 39.60484 | -25.06000 | 35104 ft | 523 kts | 85° |
| 2026-04-25 17:02 | 39.61418 | -24.96642 | 35102 ft | 523 kts | 85° |
| 2026-04-25 17:02 | 39.62346 | -24.87266 | 35101 ft | 524 kts | 85° |
| 2026-04-25 17:03 | 39.63267 | -24.77891 | 35101 ft | 524 kts | 85° |
| 2026-04-25 17:03 | 39.64181 | -24.68520 | 35101 ft | 524 kts | 85° |
| 2026-04-25 17:04 | 39.65089 | -24.59125 | 35100 ft | 525 kts | 85° |
| 2026-04-25 17:04 | 39.65990 | -24.49711 | 35103 ft | 526 kts | 85° |
| 2026-04-25 17:05 | 39.66886 | -24.40280 | 35100 ft | 527 kts | 85° |
| 2026-04-25 17:05 | 39.68220 | -24.26076 | 35102 ft | 529 kts | 85° |
| 2026-04-25 17:06 | 39.69100 | -24.16593 | 35100 ft | 530 kts | 85° |
| 2026-04-25 17:06 | 39.69975 | -24.07085 | 35103 ft | 531 kts | 85° |
| 2026-04-25 17:07 | 39.70844 | -23.97556 | 35101 ft | 531 kts | 85° |
| 2026-04-25 17:07 | 39.71699 | -23.88097 | 35104 ft | 532 kts | 85° |
| 2026-04-25 17:08 | 39.72553 | -23.78559 | 35102 ft | 531 kts | 85° |
| 2026-04-25 17:08 | 39.73399 | -23.69007 | 35103 ft | 531 kts | 85° |
| 2026-04-25 17:09 | 39.74237 | -23.59475 | 35102 ft | 530 kts | 85° |
| 2026-04-25 17:09 | 39.75065 | -23.49959 | 35102 ft | 529 kts | 86° |
| 2026-04-25 17:10 | 39.75882 | -23.40461 | 35101 ft | 528 kts | 86° |
| 2026-04-25 17:10 | 39.76693 | -23.30973 | 35100 ft | 527 kts | 86° |
| 2026-04-25 17:11 | 39.77493 | -23.21524 | 35100 ft | 525 kts | 86° |
| 2026-04-25 17:11 | 39.78280 | -23.12108 | 35100 ft | 524 kts | 86° |
| 2026-04-25 17:12 | 39.79059 | -23.02704 | 35103 ft | 523 kts | 86° |
| 2026-04-25 17:12 | 39.79829 | -22.93307 | 35099 ft | 522 kts | 86° |
| 2026-04-25 17:13 | 39.80462 | -22.85523 | 35103 ft | 521 kts | 86° |
| 2026-04-25 17:13 | 39.81342 | -22.74576 | 35100 ft | 521 kts | 87° |
| 2026-04-25 17:14 | 39.82087 | -22.65213 | 35101 ft | 520 kts | 87° |
| 2026-04-25 17:14 | 39.82820 | -22.55908 | 35101 ft | 520 kts | 87° |
| 2026-04-25 17:15 | 39.83548 | -22.46549 | 35104 ft | 520 kts | 87° |
| 2026-04-25 17:15 | 39.84269 | -22.37186 | 35101 ft | 520 kts | 87° |
| 2026-04-25 17:16 | 39.84983 | -22.27835 | 35101 ft | 520 kts | 88° |
| 2026-04-25 17:16 | 39.85689 | -22.18452 | 35105 ft | 520 kts | 88° |
| 2026-04-25 17:17 | 39.86389 | -22.09063 | 35100 ft | 521 kts | 88° |
| 2026-04-25 17:17 | 39.87083 | -21.99684 | 35103 ft | 521 kts | 88° |
| 2026-04-25 17:18 | 39.87768 | -21.90305 | 35104 ft | 521 kts | 88° |
| 2026-04-25 17:18 | 39.88446 | -21.80909 | 35102 ft | 521 kts | 88° |
| 2026-04-25 17:19 | 39.89116 | -21.71507 | 35102 ft | 521 kts | 88° |
| 2026-04-25 17:19 | 39.89780 | -21.62103 | 35102 ft | 522 kts | 88° |
| 2026-04-25 17:20 | 39.90436 | -21.52687 | 35100 ft | 521 kts | 88° |
| 2026-04-25 17:20 | 39.91081 | -21.43335 | 35102 ft | 521 kts | 88° |
| 2026-04-25 17:21 | 39.91721 | -21.33935 | 35102 ft | 521 kts | 88° |
| 2026-04-25 17:21 | 39.92352 | -21.24547 | 35101 ft | 520 kts | 88° |
| 2026-04-25 17:22 | 39.92873 | -21.16697 | 35101 ft | 519 kts | 88° |
| 2026-04-25 17:22 | 39.93587 | -21.05810 | 35099 ft | 518 kts | 88° |
| 2026-04-25 17:23 | 39.94194 | -20.96456 | 35101 ft | 518 kts | 88° |
| 2026-04-25 17:23 | 39.94792 | -20.87115 | 35100 ft | 517 kts | 88° |
| 2026-04-25 17:24 | 39.95382 | -20.77788 | 35103 ft | 516 kts | 88° |
| 2026-04-25 17:24 | 39.95961 | -20.68492 | 35102 ft | 516 kts | 88° |
| 2026-04-25 17:25 | 39.96539 | -20.59100 | 35101 ft | 517 kts | 88° |
| 2026-04-25 17:25 | 39.97102 | -20.49821 | 35102 ft | 517 kts | 88° |
| 2026-04-25 17:26 | 39.97662 | -20.40465 | 35102 ft | 518 kts | 88° |
| 2026-04-25 17:26 | 39.98216 | -20.31083 | 35102 ft | 519 kts | 88° |
| 2026-04-25 17:27 | 39.98764 | -20.21697 | 35102 ft | 519 kts | 89° |
| 2026-04-25 17:27 | 39.99126 | -20.15414 | 35103 ft | 520 kts | 89° |
| 2026-04-25 17:28 | 39.99838 | -20.02891 | 35100 ft | 521 kts | 89° |
| 2026-04-25 17:28 | 40.00264 | -19.93468 | 35100 ft | 520 kts | 91° |
| 2026-04-25 17:29 | 40.00418 | -19.84040 | 35100 ft | 519 kts | 92° |
| 2026-04-25 17:29 | 40.00536 | -19.74623 | 35100 ft | 519 kts | 92° |
| 2026-04-25 17:30 | 40.00687 | -19.65219 | 35104 ft | 518 kts | 92° |
| 2026-04-25 17:30 | 40.00858 | -19.55818 | 35103 ft | 518 kts | 91° |
| 2026-04-25 17:31 | 40.01024 | -19.46431 | 35099 ft | 517 kts | 91° |
| 2026-04-25 17:31 | 40.01181 | -19.37052 | 35100 ft | 517 kts | 92° |
| 2026-04-25 17:32 | 40.01330 | -19.27668 | 35105 ft | 517 kts | 92° |
| 2026-04-25 17:32 | 40.01470 | -19.18269 | 35104 ft | 518 kts | 92° |
| 2026-04-25 17:33 | 40.01599 | -19.08951 | 35098 ft | 517 kts | 92° |
| 2026-04-25 17:33 | 40.01723 | -18.99576 | 35104 ft | 516 kts | 91° |
| 2026-04-25 17:34 | 40.01840 | -18.90213 | 35103 ft | 516 kts | 91° |
| 2026-04-25 17:34 | 40.01950 | -18.80865 | 35101 ft | 515 kts | 91° |
| 2026-04-25 17:35 | 40.02051 | -18.71532 | 35101 ft | 514 kts | 91° |
| 2026-04-25 17:35 | 40.02144 | -18.62216 | 35100 ft | 513 kts | 91° |
| 2026-04-25 17:36 | 40.02230 | -18.52928 | 35101 ft | 512 kts | 91° |
| 2026-04-25 17:36 | 40.02309 | -18.43642 | 35101 ft | 511 kts | 91° |
| 2026-04-25 17:37 | 40.02380 | -18.34358 | 35103 ft | 511 kts | 91° |
| 2026-04-25 17:37 | 40.02443 | -18.25110 | 35098 ft | 510 kts | 91° |
| 2026-04-25 17:38 | 40.02481 | -18.18929 | 35101 ft | 509 kts | 91° |
| 2026-04-25 17:38 | 40.02547 | -18.06625 | 35101 ft | 508 kts | 91° |
| 2026-04-25 17:39 | 40.02589 | -17.97412 | 35103 ft | 508 kts | 91° |
| 2026-04-25 17:39 | 40.02623 | -17.88193 | 35099 ft | 508 kts | 91° |
| 2026-04-25 17:40 | 40.02649 | -17.78961 | 35103 ft | 508 kts | 91° |
| 2026-04-25 17:40 | 40.02668 | -17.69799 | 35102 ft | 508 kts | 92° |
| 2026-04-25 17:41 | 40.02680 | -17.60572 | 35102 ft | 509 kts | 92° |
| 2026-04-25 17:41 | 40.02684 | -17.51335 | 35101 ft | 509 kts | 92° |
| 2026-04-25 17:42 | 40.02681 | -17.42107 | 35103 ft | 509 kts | 92° |
| 2026-04-25 17:42 | 40.02672 | -17.32881 | 35104 ft | 508 kts | 92° |
| 2026-04-25 17:43 | 40.02656 | -17.23659 | 35103 ft | 508 kts | 92° |
| 2026-04-25 17:43 | 40.02637 | -17.16004 | 35101 ft | 508 kts | 92° |
| 2026-04-25 17:44 | 40.02605 | -17.06795 | 35104 ft | 507 kts | 92° |
| 2026-04-25 17:44 | 40.02568 | -16.97600 | 35102 ft | 506 kts | 91° |
| 2026-04-25 17:45 | 40.02530 | -16.89907 | 35100 ft | 505 kts | 91° |
| 2026-04-25 17:45 | 40.02470 | -16.79263 | 35103 ft | 504 kts | 91° |
| 2026-04-25 17:46 | 40.02411 | -16.70123 | 35103 ft | 503 kts | 91° |
| 2026-04-25 17:46 | 40.02344 | -16.61004 | 35112 ft | 502 kts | 91° |
| 2026-04-25 17:47 | 40.02271 | -16.51903 | 35110 ft | 501 kts | 91° |
| 2026-04-25 17:47 | 40.02192 | -16.42816 | 35112 ft | 500 kts | 91° |
| 2026-04-25 17:48 | 40.02058 | -16.29214 | 35103 ft | 500 kts | 91° |
| 2026-04-25 17:49 | 40.01961 | -16.20151 | 35078 ft | 499 kts | 91° |
| 2026-04-25 17:49 | 40.01856 | -16.11104 | 35087 ft | 498 kts | 91° |
| 2026-04-25 17:50 | 40.01744 | -16.02068 | 35084 ft | 498 kts | 91° |
| 2026-04-25 17:50 | 40.01626 | -15.93037 | 35086 ft | 498 kts | 91° |
| 2026-04-25 17:51 | 40.01502 | -15.83996 | 35089 ft | 499 kts | 91° |
| 2026-04-25 17:51 | 40.01368 | -15.74955 | 35076 ft | 498 kts | 91° |
| 2026-04-25 17:52 | 40.01229 | -15.65923 | 35076 ft | 498 kts | 91° |
| 2026-04-25 17:52 | 40.01082 | -15.56892 | 35081 ft | 498 kts | 92° |
| 2026-04-25 17:53 | 40.00929 | -15.47863 | 35070 ft | 498 kts | 92° |
| 2026-04-25 17:53 | 40.00769 | -15.38817 | 35080 ft | 499 kts | 92° |
| 2026-04-25 17:54 | 40.00601 | -15.29756 | 35073 ft | 500 kts | 92° |
| 2026-04-25 17:54 | 40.00426 | -15.20741 | 35074 ft | 501 kts | 92° |
| 2026-04-25 17:55 | 40.00246 | -15.11656 | 35069 ft | 501 kts | 92° |
| 2026-04-25 17:55 | 40.00135 | -15.02572 | 35066 ft | 502 kts | 88° |
| 2026-04-25 17:56 | 40.01048 | -14.93516 | 35073 ft | 504 kts | 77° |
| 2026-04-25 17:56 | 40.02693 | -14.84623 | 35070 ft | 505 kts | 77° |
| 2026-04-25 17:57 | 40.04342 | -14.75711 | 35078 ft | 506 kts | 77° |
| 2026-04-25 17:57 | 40.05953 | -14.66781 | 35075 ft | 506 kts | 78° |
| 2026-04-25 17:58 | 40.07542 | -14.57816 | 35080 ft | 507 kts | 78° |
| 2026-04-25 17:58 | 40.09124 | -14.48829 | 35077 ft | 507 kts | 78° |
| 2026-04-25 17:59 | 40.10701 | -14.39841 | 35073 ft | 508 kts | 78° |
| 2026-04-25 17:59 | 40.12272 | -14.30841 | 35073 ft | 508 kts | 78° |
| 2026-04-25 18:00 | 40.13834 | -14.21828 | 35073 ft | 508 kts | 79° |
| 2026-04-25 18:00 | 40.14861 | -14.12769 | 35068 ft | 507 kts | 85° |
| 2026-04-25 18:01 | 40.15605 | -14.03603 | 35080 ft | 507 kts | 85° |
| 2026-04-25 18:01 | 40.16356 | -13.94446 | 35070 ft | 507 kts | 85° |
| 2026-04-25 18:02 | 40.17145 | -13.85280 | 35078 ft | 507 kts | 85° |
| 2026-04-25 18:02 | 40.17947 | -13.76115 | 35076 ft | 507 kts | 85° |
| 2026-04-25 18:03 | 40.18743 | -13.66953 | 35079 ft | 506 kts | 84° |
| 2026-04-25 18:03 | 40.19529 | -13.57803 | 35076 ft | 505 kts | 84° |
| 2026-04-25 18:04 | 40.20302 | -13.48696 | 35074 ft | 503 kts | 84° |
| 2026-04-25 18:04 | 40.21065 | -13.39611 | 35071 ft | 502 kts | 84° |
| 2026-04-25 18:05 | 40.21821 | -13.30486 | 35420 ft | 504 kts | 84° |
| 2026-04-25 18:05 | 40.22196 | -13.25934 | 35758 ft | 502 kts | 84° |
| 2026-04-25 18:05 | 40.22569 | -13.21394 | 35994 ft | 502 kts | 84° |
| 2026-04-25 18:06 | 40.23313 | -13.12277 | 36071 ft | 504 kts | 84° |
| 2026-04-25 18:06 | 40.24049 | -13.03163 | 36056 ft | 502 kts | 84° |
| 2026-04-25 18:07 | 40.24776 | -12.94086 | 36061 ft | 500 kts | 84° |
| 2026-04-25 18:07 | 40.25488 | -12.85096 | 36067 ft | 499 kts | 84° |
| 2026-04-25 18:08 | 40.26201 | -12.75999 | 36062 ft | 499 kts | 84° |
| 2026-04-25 18:08 | 40.26898 | -12.67025 | 36064 ft | 499 kts | 84° |
| 2026-04-25 18:09 | 40.27593 | -12.57992 | 36066 ft | 499 kts | 85° |
| 2026-04-25 18:09 | 40.28282 | -12.48936 | 36065 ft | 500 kts | 85° |
| 2026-04-25 18:10 | 40.28964 | -12.39859 | 36062 ft | 501 kts | 85° |
| 2026-04-25 18:10 | 40.29641 | -12.30762 | 36067 ft | 502 kts | 85° |
| 2026-04-25 18:11 | 40.30313 | -12.21638 | 36065 ft | 503 kts | 85° |
| 2026-04-25 18:11 | 40.30978 | -12.12524 | 36061 ft | 503 kts | 85° |
| 2026-04-25 18:12 | 40.31636 | -12.03398 | 36067 ft | 503 kts | 85° |
| 2026-04-25 18:12 | 40.32286 | -11.94268 | 36068 ft | 503 kts | 85° |
| 2026-04-25 18:13 | 40.32929 | -11.85131 | 36069 ft | 503 kts | 85° |
| 2026-04-25 18:13 | 40.33565 | -11.75994 | 36062 ft | 503 kts | 85° |
| 2026-04-25 18:14 | 40.34506 | -11.62294 | 36068 ft | 502 kts | 85° |
| 2026-04-25 18:14 | 40.35122 | -11.53173 | 36066 ft | 502 kts | 85° |
| 2026-04-25 18:15 | 40.35733 | -11.44058 | 36070 ft | 502 kts | 85° |
| 2026-04-25 18:15 | 40.36334 | -11.34951 | 36074 ft | 501 kts | 85° |
| 2026-04-25 18:16 | 40.36930 | -11.25843 | 36074 ft | 501 kts | 85° |
| 2026-04-25 18:17 | 40.37808 | -11.12171 | 36073 ft | 501 kts | 85° |
| 2026-04-25 18:17 | 40.38384 | -11.03069 | 36072 ft | 501 kts | 85° |
| 2026-04-25 18:18 | 40.38953 | -10.93960 | 36076 ft | 501 kts | 85° |
| 2026-04-25 18:18 | 40.39515 | -10.84852 | 36074 ft | 501 kts | 85° |
| 2026-04-25 18:19 | 40.40069 | -10.75748 | 36077 ft | 500 kts | 85° |
| 2026-04-25 18:19 | 40.40614 | -10.66667 | 36073 ft | 499 kts | 85° |
| 2026-04-25 18:20 | 40.41152 | -10.57606 | 36071 ft | 498 kts | 85° |
| 2026-04-25 18:20 | 40.41683 | -10.48537 | 36075 ft | 498 kts | 85° |
| 2026-04-25 18:21 | 40.42206 | -10.39465 | 36074 ft | 498 kts | 85° |
| 2026-04-25 18:21 | 40.42719 | -10.30451 | 36074 ft | 498 kts | 85° |
| 2026-04-25 18:22 | 40.43228 | -10.21377 | 36073 ft | 499 kts | 85° |
| 2026-04-25 18:22 | 40.43731 | -10.12298 | 36073 ft | 498 kts | 85° |
| 2026-04-25 18:23 | 40.44227 | -10.03225 | 36074 ft | 498 kts | 85° |
| 2026-04-25 18:23 | 40.44716 | -9.94141 | 36073 ft | 498 kts | 85° |
| 2026-04-25 18:24 | 40.45197 | -9.85065 | 36076 ft | 498 kts | 85° |
| 2026-04-25 18:24 | 40.45670 | -9.75991 | 36072 ft | 498 kts | 85° |
| 2026-04-25 18:25 | 40.46136 | -9.66923 | 36074 ft | 498 kts | 85° |
| 2026-04-25 18:25 | 40.46595 | -9.57855 | 36073 ft | 498 kts | 85° |
| 2026-04-25 18:26 | 40.47046 | -9.48796 | 36071 ft | 497 kts | 85° |
| 2026-04-25 18:26 | 40.47491 | -9.39729 | 36073 ft | 497 kts | 85° |
| 2026-04-25 18:27 | 40.47928 | -9.30672 | 36073 ft | 496 kts | 85° |
| 2026-04-25 18:27 | 40.48358 | -9.21632 | 36072 ft | 496 kts | 85° |
| 2026-04-25 18:28 | 40.48780 | -9.12592 | 36074 ft | 495 kts | 85° |
| 2026-04-25 18:28 | 40.49191 | -9.03636 | 36075 ft | 495 kts | 85° |
| 2026-04-25 18:29 | 40.49798 | -8.90113 | 36073 ft | 494 kts | 85° |
| 2026-04-25 18:30 | 40.50520 | -8.73585 | 36074 ft | 493 kts | 85° |
| 2026-04-25 18:30 | 40.50901 | -8.64604 | 36074 ft | 492 kts | 85° |
| 2026-04-25 18:31 | 40.51275 | -8.55635 | 36074 ft | 491 kts | 85° |
| 2026-04-25 18:31 | 40.51641 | -8.46730 | 36076 ft | 490 kts | 85° |
| 2026-04-25 18:32 | 40.52000 | -8.37785 | 36075 ft | 490 kts | 85° |
| 2026-04-25 18:32 | 40.52353 | -8.28844 | 36076 ft | 489 kts | 85° |
| 2026-04-25 18:33 | 40.52697 | -8.19925 | 36073 ft | 489 kts | 85° |
| 2026-04-25 18:33 | 40.53035 | -8.11005 | 36074 ft | 488 kts | 85° |
| 2026-04-25 18:34 | 40.53366 | -8.02084 | 36073 ft | 488 kts | 85° |
| 2026-04-25 18:34 | 40.53690 | -7.93178 | 36078 ft | 488 kts | 85° |
| 2026-04-25 18:35 | 40.54005 | -7.84285 | 36076 ft | 487 kts | 85° |
| 2026-04-25 18:35 | 40.54315 | -7.75389 | 36076 ft | 487 kts | 85° |
| 2026-04-25 18:36 | 40.54618 | -7.66493 | 36076 ft | 487 kts | 85° |
| 2026-04-25 18:36 | 40.54914 | -7.57601 | 36077 ft | 487 kts | 85° |
| 2026-04-25 18:37 | 40.55203 | -7.48708 | 36075 ft | 487 kts | 86° |
| 2026-04-25 18:37 | 40.55485 | -7.39810 | 36076 ft | 487 kts | 86° |
| 2026-04-25 18:38 | 40.55760 | -7.30915 | 36073 ft | 487 kts | 86° |
| 2026-04-25 18:38 | 40.56028 | -7.22013 | 36071 ft | 487 kts | 86° |
| 2026-04-25 18:39 | 40.56288 | -7.13174 | 36073 ft | 487 kts | 86° |
| 2026-04-25 18:39 | 40.56543 | -7.04277 | 36076 ft | 487 kts | 86° |
| 2026-04-25 18:40 | 40.56791 | -6.95386 | 36074 ft | 486 kts | 86° |
| 2026-04-25 18:40 | 40.57032 | -6.86498 | 36073 ft | 486 kts | 87° |
| 2026-04-25 18:41 | 40.57265 | -6.77616 | 36074 ft | 486 kts | 87° |
| 2026-04-25 18:41 | 40.57493 | -6.68733 | 36084 ft | 485 kts | 87° |
| 2026-04-25 18:42 | 40.57677 | -6.61359 | 36082 ft | 485 kts | 87° |
| 2026-04-25 18:42 | 40.57926 | -6.51004 | 36085 ft | 484 kts | 87° |
| 2026-04-25 18:43 | 40.58132 | -6.42157 | 36081 ft | 484 kts | 88° |
| 2026-04-25 18:43 | 40.58332 | -6.33308 | 36085 ft | 484 kts | 88° |
| 2026-04-25 18:44 | 40.59004 | -6.24528 | 36091 ft | 482 kts | 80° |
| 2026-04-25 18:44 | 40.60114 | -6.15820 | 36092 ft | 482 kts | 79° |
| 2026-04-25 18:45 | 40.61215 | -6.07129 | 36093 ft | 482 kts | 80° |
| 2026-04-25 18:45 | 40.62279 | -5.98467 | 36091 ft | 482 kts | 80° |
| 2026-04-25 18:46 | 40.63328 | -5.89701 | 36092 ft | 482 kts | 81° |
| 2026-04-25 18:46 | 40.64371 | -5.81020 | 36098 ft | 482 kts | 81° |
| 2026-04-25 18:47 | 40.65409 | -5.72295 | 36104 ft | 482 kts | 81° |
| 2026-04-25 18:47 | 40.66436 | -5.63574 | 36102 ft | 483 kts | 81° |
| 2026-04-25 18:48 | 40.67461 | -5.54822 | 36103 ft | 483 kts | 81° |
| 2026-04-25 18:48 | 40.68480 | -5.46067 | 36102 ft | 484 kts | 81° |
| 2026-04-25 18:49 | 40.69494 | -5.37294 | 36100 ft | 485 kts | 81° |
| 2026-04-25 18:49 | 40.70502 | -5.28511 | 36103 ft | 485 kts | 81° |
| 2026-04-25 18:50 | 40.71505 | -5.19716 | 36101 ft | 485 kts | 81° |
| 2026-04-25 18:50 | 40.72501 | -5.10919 | 36102 ft | 486 kts | 81° |
| 2026-04-25 18:51 | 40.73325 | -5.03595 | 36103 ft | 486 kts | 82° |
| 2026-04-25 18:51 | 40.74477 | -4.93284 | 36103 ft | 486 kts | 82° |
| 2026-04-25 18:52 | 40.75453 | -4.84470 | 36100 ft | 486 kts | 82° |
| 2026-04-25 18:52 | 40.76419 | -4.75704 | 36102 ft | 486 kts | 82° |
| 2026-04-25 18:53 | 40.77384 | -4.66872 | 36102 ft | 486 kts | 82° |
| 2026-04-25 18:53 | 40.78340 | -4.58060 | 36101 ft | 485 kts | 82° |
| 2026-04-25 18:54 | 40.79763 | -4.44825 | 36109 ft | 485 kts | 82° |
| 2026-04-25 18:55 | 40.80702 | -4.36005 | 36108 ft | 485 kts | 82° |
| 2026-04-25 18:55 | 40.81635 | -4.27182 | 36110 ft | 485 kts | 82° |
| 2026-04-25 18:56 | 40.82561 | -4.18359 | 36112 ft | 485 kts | 82° |
| 2026-04-25 18:56 | 40.83478 | -4.09542 | 36111 ft | 485 kts | 82° |
| 2026-04-25 18:57 | 40.84391 | -4.00708 | 36112 ft | 485 kts | 82° |
| 2026-04-25 18:57 | 40.85298 | -3.91866 | 36109 ft | 486 kts | 82° |
| 2026-04-25 18:58 | 40.86196 | -3.83028 | 36103 ft | 486 kts | 82° |
| 2026-04-25 18:58 | 40.87537 | -3.69724 | 36102 ft | 487 kts | 83° |
| 2026-04-25 18:59 | 40.89303 | -3.51962 | 36099 ft | 488 kts | 83° |
| 2026-04-25 19:00 | 40.90611 | -3.38610 | 36106 ft | 488 kts | 83° |
| 2026-04-25 19:01 | 40.91903 | -3.25248 | 36101 ft | 489 kts | 83° |
| 2026-04-25 19:01 | 40.92753 | -3.16381 | 36090 ft | 490 kts | 83° |
| 2026-04-25 19:02 | 40.94015 | -3.02991 | 36099 ft | 490 kts | 83° |
| 2026-04-25 19:03 | 40.94978 | -2.92585 | 36093 ft | 487 kts | 83° |
| 2026-04-25 19:03 | 40.96097 | -2.80720 | 36107 ft | 489 kts | 83° |
| 2026-04-25 19:04 | 40.97329 | -2.67307 | 36102 ft | 490 kts | 83° |
| 2026-04-25 19:05 | 40.99893 | -2.49577 | 36112 ft | 491 kts | 76° |
| 2026-04-25 19:06 | 41.01624 | -2.40815 | 36112 ft | 493 kts | 76° |
| 2026-04-25 19:06 | 41.04157 | -2.27601 | 36115 ft | 494 kts | 76° |
| 2026-04-25 19:07 | 41.06643 | -2.14449 | 36109 ft | 492 kts | 76° |
| 2026-04-25 19:08 | 41.09117 | -2.01214 | 36111 ft | 490 kts | 76° |
| 2026-04-25 19:09 | 41.11829 | -1.86649 | 36106 ft | 489 kts | 77° |
| 2026-04-25 19:10 | 41.14787 | -1.70570 | 36123 ft | 491 kts | 77° |
| 2026-04-25 19:10 | 41.16403 | -1.61759 | 36123 ft | 492 kts | 77° |
| 2026-04-25 19:11 | 41.18015 | -1.52924 | 36119 ft | 493 kts | 77° |
| 2026-04-25 19:11 | 41.19622 | -1.44068 | 36122 ft | 494 kts | 77° |
| 2026-04-25 19:12 | 41.21224 | -1.35194 | 36119 ft | 494 kts | 77° |
| 2026-04-25 19:12 | 41.22821 | -1.26323 | 36110 ft | 494 kts | 77° |
| 2026-04-25 19:13 | 41.24412 | -1.17417 | 36112 ft | 495 kts | 77° |
| 2026-04-25 19:13 | 41.25996 | -1.08524 | 36108 ft | 494 kts | 77° |
| 2026-04-25 19:14 | 41.27570 | -0.99642 | 36100 ft | 494 kts | 77° |
| 2026-04-25 19:14 | 41.28877 | -0.92245 | 36103 ft | 494 kts | 77° |
| 2026-04-25 19:15 | 41.30436 | -0.83355 | 36092 ft | 493 kts | 77° |
| 2026-04-25 19:15 | 41.31987 | -0.74477 | 36091 ft | 492 kts | 77° |
| 2026-04-25 19:16 | 41.33531 | -0.65607 | 36092 ft | 492 kts | 77° |
| 2026-04-25 19:16 | 41.35067 | -0.56741 | 36092 ft | 492 kts | 77° |
| 2026-04-25 19:17 | 41.36501 | -0.47851 | 36093 ft | 492 kts | 79° |
| 2026-04-25 19:17 | 41.37784 | -0.38915 | 36097 ft | 491 kts | 80° |
| 2026-04-25 19:18 | 41.39053 | -0.29966 | 36108 ft | 491 kts | 79° |
| 2026-04-25 19:18 | 41.40337 | -0.21034 | 36112 ft | 491 kts | 79° |
| 2026-04-25 19:19 | 41.41626 | -0.12091 | 36124 ft | 492 kts | 79° |
| 2026-04-25 19:19 | 41.42913 | -0.03138 | 36116 ft | 492 kts | 79° |
| 2026-04-25 19:20 | 41.44192 | 0.05823 | 36116 ft | 492 kts | 79° |
| 2026-04-25 19:20 | 41.45459 | 0.14792 | 36112 ft | 493 kts | 79° |
| 2026-04-25 19:21 | 41.46729 | 0.23774 | 36109 ft | 493 kts | 79° |
| 2026-04-25 19:21 | 41.48610 | 0.37211 | 36110 ft | 493 kts | 79° |
| 2026-04-25 19:22 | 41.49859 | 0.46211 | 36113 ft | 494 kts | 79° |
| 2026-04-25 19:23 | 41.51722 | 0.59721 | 36111 ft | 493 kts | 79° |
| 2026-04-25 19:23 | 41.53566 | 0.73230 | 36107 ft | 493 kts | 79° |
| 2026-04-25 19:24 | 41.54787 | 0.82236 | 36114 ft | 493 kts | 79° |
| 2026-04-25 19:25 | 41.57208 | 1.00260 | 36114 ft | 493 kts | 79° |
| 2026-04-25 19:25 | 41.58408 | 1.09279 | 36119 ft | 493 kts | 80° |
| 2026-04-25 19:26 | 41.59590 | 1.18220 | 36119 ft | 492 kts | 80° |
| 2026-04-25 19:26 | 41.60775 | 1.27236 | 36120 ft | 493 kts | 80° |
| 2026-04-25 19:27 | 41.61756 | 1.34744 | 36118 ft | 493 kts | 80° |
| 2026-04-25 19:27 | 41.63124 | 1.45286 | 36117 ft | 493 kts | 80° |
| 2026-04-25 19:28 | 41.64288 | 1.54312 | 36117 ft | 493 kts | 80° |
| 2026-04-25 19:28 | 41.65446 | 1.63350 | 36117 ft | 493 kts | 80° |
| 2026-04-25 19:29 | 41.66596 | 1.72388 | 36123 ft | 493 kts | 80° |
| 2026-04-25 19:29 | 41.67740 | 1.81441 | 36113 ft | 494 kts | 80° |
| 2026-04-25 19:30 | 41.68879 | 1.90510 | 36112 ft | 494 kts | 80° |
| 2026-04-25 19:30 | 41.70010 | 1.99573 | 36111 ft | 494 kts | 80° |
| 2026-04-25 19:31 | 41.71134 | 2.08643 | 36112 ft | 494 kts | 80° |
| 2026-04-25 19:31 | 41.72252 | 2.17725 | 36106 ft | 494 kts | 80° |
| 2026-04-25 19:32 | 41.73362 | 2.26800 | 36112 ft | 494 kts | 80° |
| 2026-04-25 19:32 | 41.74279 | 2.34355 | 36111 ft | 494 kts | 81° |
| 2026-04-25 19:33 | 41.75560 | 2.44970 | 36115 ft | 494 kts | 81° |
| 2026-04-25 19:33 | 41.76649 | 2.54055 | 36105 ft | 494 kts | 81° |
| 2026-04-25 19:34 | 41.77731 | 2.63143 | 36101 ft | 494 kts | 81° |
| 2026-04-25 19:34 | 41.78803 | 2.72230 | 36102 ft | 493 kts | 81° |
| 2026-04-25 19:35 | 41.79861 | 2.81255 | 36103 ft | 493 kts | 81° |
| 2026-04-25 19:35 | 41.80919 | 2.90335 | 36101 ft | 493 kts | 81° |
| 2026-04-25 19:36 | 41.81969 | 2.99409 | 36100 ft | 493 kts | 81° |
| 2026-04-25 19:36 | 41.83012 | 3.08494 | 36101 ft | 492 kts | 81° |
| 2026-04-25 19:37 | 41.84048 | 3.17574 | 36102 ft | 493 kts | 81° |
| 2026-04-25 19:37 | 41.85076 | 3.26659 | 36101 ft | 492 kts | 81° |
| 2026-04-25 19:38 | 41.86096 | 3.35741 | 36101 ft | 492 kts | 81° |
| 2026-04-25 19:38 | 41.87109 | 3.44822 | 36103 ft | 492 kts | 81° |
| 2026-04-25 19:39 | 41.88115 | 3.53907 | 36102 ft | 492 kts | 81° |
| 2026-04-25 19:39 | 41.89106 | 3.62932 | 36103 ft | 492 kts | 81° |
| 2026-04-25 19:40 | 41.90099 | 3.72029 | 36095 ft | 493 kts | 81° |
| 2026-04-25 19:40 | 41.91085 | 3.81132 | 36093 ft | 493 kts | 81° |
| 2026-04-25 19:41 | 41.92126 | 3.90226 | 36090 ft | 492 kts | 77° |
| 2026-04-25 19:41 | 41.93319 | 3.96151 | 36091 ft | 491 kts | 70° |
| 2026-04-25 19:42 | 41.96894 | 4.07363 | 36095 ft | 490 kts | 65° |
| 2026-04-25 19:42 | 41.99707 | 4.15714 | 36092 ft | 490 kts | 62° |
| 2026-04-25 19:43 | 42.03358 | 4.23431 | 36095 ft | 488 kts | 53° |
| 2026-04-25 19:43 | 42.07395 | 4.30803 | 36092 ft | 489 kts | 52° |
| 2026-04-25 19:44 | 42.11410 | 4.38197 | 36083 ft | 490 kts | 53° |
| 2026-04-25 19:44 | 42.15377 | 4.45596 | 36085 ft | 490 kts | 53° |
| 2026-04-25 19:45 | 42.19350 | 4.53058 | 36084 ft | 490 kts | 53° |
| 2026-04-25 19:45 | 42.23315 | 4.60527 | 36083 ft | 490 kts | 53° |
| 2026-04-25 19:46 | 42.27284 | 4.68021 | 36083 ft | 490 kts | 53° |
| 2026-04-25 19:46 | 42.31254 | 4.75531 | 36081 ft | 491 kts | 53° |
| 2026-04-25 19:47 | 42.35213 | 4.83039 | 36079 ft | 491 kts | 53° |
| 2026-04-25 19:47 | 42.39175 | 4.90573 | 36095 ft | 491 kts | 53° |
| 2026-04-25 19:48 | 42.43102 | 4.98059 | 36100 ft | 492 kts | 53° |
| 2026-04-25 19:48 | 42.47061 | 5.05623 | 36091 ft | 492 kts | 53° |
| 2026-04-25 19:49 | 42.49709 | 5.10695 | 36091 ft | 493 kts | 53° |
| 2026-04-25 19:49 | 42.54973 | 5.20801 | 36091 ft | 493 kts | 54° |
| 2026-04-25 19:50 | 42.60890 | 5.32200 | 36091 ft | 493 kts | 54° |
| 2026-04-25 19:51 | 42.64833 | 5.39819 | 36093 ft | 493 kts | 54° |
| 2026-04-25 19:51 | 42.68744 | 5.47398 | 36090 ft | 493 kts | 54° |
| 2026-04-25 19:52 | 42.72677 | 5.55039 | 36092 ft | 493 kts | 54° |
| 2026-04-25 19:52 | 42.76599 | 5.62677 | 36091 ft | 492 kts | 54° |
| 2026-04-25 19:53 | 42.80520 | 5.70331 | 36084 ft | 493 kts | 54° |
| 2026-04-25 19:53 | 42.84439 | 5.78004 | 36083 ft | 493 kts | 54° |
| 2026-04-25 19:54 | 42.88346 | 5.85673 | 36082 ft | 493 kts | 54° |
| 2026-04-25 19:54 | 42.92252 | 5.93361 | 36080 ft | 493 kts | 54° |
| 2026-04-25 19:55 | 42.96152 | 6.01053 | 36083 ft | 493 kts | 54° |
| 2026-04-25 19:55 | 43.00050 | 6.08761 | 36079 ft | 493 kts | 54° |
| 2026-04-25 19:56 | 43.03944 | 6.16485 | 36075 ft | 494 kts | 54° |
| 2026-04-25 19:56 | 43.07810 | 6.24173 | 36076 ft | 494 kts | 54° |
| 2026-04-25 19:57 | 43.11713 | 6.31951 | 35610 ft | 497 kts | 54° |
| 2026-04-25 19:57 | 43.13657 | 6.35834 | 35307 ft | 491 kts | 54° |
| 2026-04-25 19:57 | 43.15572 | 6.39667 | 35046 ft | 484 kts | 54° |
| 2026-04-25 19:57 | 43.17477 | 6.43482 | 34800 ft | 489 kts | 54° |
| 2026-04-25 19:58 | 43.19420 | 6.47376 | 34600 ft | 500 kts | 54° |
| 2026-04-25 19:58 | 43.21392 | 6.51334 | 34355 ft | 504 kts | 54° |
| 2026-04-25 19:58 | 43.23369 | 6.55309 | 34113 ft | 504 kts | 54° |
| 2026-04-25 19:58 | 43.25334 | 6.59267 | 33860 ft | 502 kts | 54° |
| 2026-04-25 19:59 | 43.27299 | 6.63230 | 33610 ft | 500 kts | 54° |
| 2026-04-25 19:59 | 43.29250 | 6.67170 | 33358 ft | 498 kts | 54° |
| 2026-04-25 19:59 | 43.31192 | 6.71096 | 33107 ft | 496 kts | 54° |
| 2026-04-25 19:59 | 43.33124 | 6.75006 | 32860 ft | 494 kts | 54° |
| 2026-04-25 20:00 | 43.35047 | 6.78903 | 32601 ft | 492 kts | 54° |
| 2026-04-25 20:00 | 43.38868 | 6.86662 | 32122 ft | 493 kts | 54° |
| 2026-04-25 20:00 | 43.40799 | 6.90589 | 31885 ft | 498 kts | 54° |
| 2026-04-25 20:01 | 43.44678 | 6.98496 | 31389 ft | 496 kts | 54° |
| 2026-04-25 20:01 | 43.46576 | 7.02373 | 31136 ft | 494 kts | 54° |
| 2026-04-25 20:01 | 43.48492 | 7.06295 | 30882 ft | 491 kts | 54° |
| 2026-04-25 20:02 | 43.50389 | 7.10183 | 30637 ft | 489 kts | 54° |
| 2026-04-25 20:02 | 43.52282 | 7.14066 | 30390 ft | 487 kts | 54° |
| 2026-04-25 20:02 | 43.54164 | 7.17932 | 30192 ft | 484 kts | 54° |
| 2026-04-25 20:02 | 43.56045 | 7.21783 | 30144 ft | 482 kts | 53° |
| 2026-04-25 20:03 | 43.60440 | 7.28736 | 30104 ft | 482 kts | 41° |
| 2026-04-25 20:03 | 43.64532 | 7.33978 | 30099 ft | 485 kts | 41° |
| 2026-04-25 20:04 | 43.69479 | 7.40340 | 30090 ft | 483 kts | 41° |
| 2026-04-25 20:04 | 43.74356 | 7.46701 | 30112 ft | 481 kts | 41° |
| 2026-04-25 20:05 | 43.79214 | 7.53082 | 30099 ft | 482 kts | 41° |
| 2026-04-25 20:05 | 43.84079 | 7.59494 | 30095 ft | 483 kts | 41° |
| 2026-04-25 20:06 | 43.88951 | 7.65928 | 30094 ft | 484 kts | 41° |
| 2026-04-25 20:06 | 43.93828 | 7.72385 | 30082 ft | 485 kts | 41° |
| 2026-04-25 20:07 | 43.98708 | 7.78857 | 30069 ft | 485 kts | 41° |
| 2026-04-25 20:07 | 44.01119 | 7.82061 | 29693 ft | 487 kts | 41° |
| 2026-04-25 20:07 | 44.03560 | 7.85309 | 29166 ft | 484 kts | 41° |
| 2026-04-25 20:08 | 44.05975 | 7.88528 | 28670 ft | 478 kts | 41° |
| 2026-04-25 20:08 | 44.08353 | 7.91703 | 28167 ft | 472 kts | 41° |
| 2026-04-25 20:08 | 44.10708 | 7.94850 | 27679 ft | 467 kts | 41° |
| 2026-04-25 20:08 | 44.13041 | 7.97970 | 27169 ft | 463 kts | 41° |
| 2026-04-25 20:09 | 44.15350 | 8.01060 | 26655 ft | 458 kts | 41° |
| 2026-04-25 20:09 | 44.17632 | 8.04118 | 26192 ft | 454 kts | 41° |
| 2026-04-25 20:09 | 44.19896 | 8.07153 | 25757 ft | 450 kts | 41° |
| 2026-04-25 20:09 | 44.22147 | 8.10175 | 25310 ft | 449 kts | 41° |
| 2026-04-25 20:10 | 44.24402 | 8.13203 | 24871 ft | 451 kts | 41° |
| 2026-04-25 20:10 | 44.26661 | 8.16239 | 24425 ft | 451 kts | 41° |
| 2026-04-25 20:10 | 44.28910 | 8.19270 | 23976 ft | 448 kts | 41° |
| 2026-04-25 20:10 | 44.31146 | 8.22287 | 23521 ft | 446 kts | 41° |
| 2026-04-25 20:11 | 44.33373 | 8.25296 | 23073 ft | 444 kts | 41° |
| 2026-04-25 20:11 | 44.35580 | 8.28280 | 22623 ft | 441 kts | 41° |
| 2026-04-25 20:11 | 44.37783 | 8.31262 | 22172 ft | 439 kts | 41° |
| 2026-04-25 20:11 | 44.39970 | 8.34224 | 21728 ft | 436 kts | 41° |
| 2026-04-25 20:12 | 44.42148 | 8.37179 | 21274 ft | 434 kts | 41° |
| 2026-04-25 20:12 | 44.44306 | 8.40111 | 20825 ft | 432 kts | 41° |
| 2026-04-25 20:12 | 44.46457 | 8.43035 | 20367 ft | 430 kts | 41° |
| 2026-04-25 20:12 | 44.47884 | 8.44943 | 20064 ft | 425 kts | 39° |
| 2026-04-25 20:13 | 44.51090 | 8.47974 | 19431 ft | 407 kts | 24° |
| 2026-04-25 20:13 | 44.53641 | 8.49492 | 19003 ft | 401 kts | 17° |
| 2026-04-25 20:13 | 44.56302 | 8.50557 | 18542 ft | 396 kts | 11° |
| 2026-04-25 20:13 | 44.58964 | 8.51495 | 18101 ft | 393 kts | 11° |
| 2026-04-25 20:14 | 44.61608 | 8.52429 | 17642 ft | 391 kts | 12° |
| 2026-04-25 20:14 | 44.64239 | 8.53361 | 17206 ft | 388 kts | 12° |
| 2026-04-25 20:14 | 44.66849 | 8.54291 | 16697 ft | 388 kts | 12° |
| 2026-04-25 20:14 | 44.69465 | 8.55231 | 16152 ft | 388 kts | 12° |
| 2026-04-25 20:15 | 44.72074 | 8.56173 | 15611 ft | 386 kts | 12° |
| 2026-04-25 20:15 | 44.74665 | 8.57117 | 15070 ft | 383 kts | 12° |
| 2026-04-25 20:15 | 44.77241 | 8.58054 | 14503 ft | 381 kts | 13° |
| 2026-04-25 20:15 | 44.79798 | 8.58977 | 13965 ft | 379 kts | 13° |
| 2026-04-25 20:16 | 44.82342 | 8.59900 | 13413 ft | 376 kts | 13° |
| 2026-04-25 20:16 | 44.84871 | 8.60822 | 12869 ft | 374 kts | 13° |
| 2026-04-25 20:16 | 44.87374 | 8.61736 | 12322 ft | 371 kts | 13° |
| 2026-04-25 20:16 | 44.89863 | 8.62651 | 11774 ft | 368 kts | 13° |
| 2026-04-25 20:17 | 44.92336 | 8.63554 | 11226 ft | 366 kts | 13° |
| 2026-04-25 20:17 | 44.94735 | 8.64429 | 10637 ft | 347 kts | 13° |
| 2026-04-25 20:17 | 44.97009 | 8.65269 | 10119 ft | 328 kts | 13° |
| 2026-04-25 20:17 | 44.99122 | 8.66049 | 9911 ft | 300 kts | 13° |
| 2026-04-25 20:18 | 45.01088 | 8.66765 | 9815 ft | 287 kts | 13° |
| 2026-04-25 20:18 | 45.03014 | 8.67464 | 9594 ft | 285 kts | 13° |
| 2026-04-25 20:18 | 45.04905 | 8.68155 | 9234 ft | 275 kts | 13° |
| 2026-04-25 20:18 | 45.06717 | 8.68821 | 8959 ft | 265 kts | 14° |
| 2026-04-25 20:19 | 45.08513 | 8.69483 | 8723 ft | 268 kts | 13° |
| 2026-04-25 20:19 | 45.10320 | 8.70147 | 8483 ft | 268 kts | 13° |
| 2026-04-25 20:19 | 45.12109 | 8.70806 | 8299 ft | 265 kts | 13° |
| 2026-04-25 20:19 | 45.13872 | 8.71457 | 8018 ft | 266 kts | 13° |
| 2026-04-25 20:20 | 45.15683 | 8.72125 | 7744 ft | 266 kts | 13° |
| 2026-04-25 20:20 | 45.17455 | 8.72779 | 7474 ft | 267 kts | 13° |
| 2026-04-25 20:20 | 45.19250 | 8.73443 | 7216 ft | 266 kts | 14° |
| 2026-04-25 20:20 | 45.21034 | 8.74102 | 7010 ft | 263 kts | 14° |
| 2026-04-25 20:21 | 45.22797 | 8.74754 | 6804 ft | 261 kts | 14° |
| 2026-04-25 20:21 | 45.24536 | 8.75397 | 6595 ft | 255 kts | 14° |
| 2026-04-25 20:21 | 45.26248 | 8.76033 | 6382 ft | 254 kts | 14° |
| 2026-04-25 20:21 | 45.27952 | 8.76664 | 6181 ft | 249 kts | 14° |
| 2026-04-25 20:22 | 45.29599 | 8.77273 | 5944 ft | 240 kts | 14° |
| 2026-04-25 20:22 | 45.30659 | 8.77666 | 5821 ft | 235 kts | 14° |
| 2026-04-25 20:22 | 45.32763 | 8.78446 | 5600 ft | 234 kts | 14° |
| 2026-04-25 20:22 | 45.34341 | 8.79032 | 5391 ft | 235 kts | 14° |
| 2026-04-25 20:23 | 45.35926 | 8.79620 | 5210 ft | 235 kts | 14° |
| 2026-04-25 20:23 | 45.37492 | 8.79976 | 5005 ft | 222 kts | 356° |
| 2026-04-25 20:23 | 45.38991 | 8.79771 | 4851 ft | 211 kts | 353° |
| 2026-04-25 20:23 | 45.40435 | 8.79525 | 4679 ft | 206 kts | 351° |
| 2026-04-25 20:24 | 45.41849 | 8.79190 | 4524 ft | 206 kts | 349° |
| 2026-04-25 20:24 | 45.43240 | 8.78820 | 4334 ft | 199 kts | 348° |
| 2026-04-25 20:24 | 45.44550 | 8.78460 | 4128 ft | 189 kts | 348° |
| 2026-04-25 20:24 | 45.45826 | 8.78109 | 3864 ft | 184 kts | 348° |
| 2026-04-25 20:25 | 45.47077 | 8.77763 | 3614 ft | 182 kts | 348° |
| 2026-04-25 20:25 | 45.48286 | 8.77429 | 3393 ft | 173 kts | 348° |
| 2026-04-25 20:25 | 45.49453 | 8.77107 | 3179 ft | 170 kts | 348° |
| 2026-04-25 20:25 | 45.50616 | 8.76786 | 2935 ft | 169 kts | 348° |
| 2026-04-25 20:26 | 45.51749 | 8.76473 | 2684 ft | 163 kts | 348° |
| 2026-04-25 20:26 | 45.52850 | 8.76169 | 2447 ft | 161 kts | 348° |
| 2026-04-25 20:26 | 45.53946 | 8.75860 | 2256 ft | 160 kts | 348° |
| 2026-04-25 20:26 | 45.55037 | 8.75549 | 2102 ft | 161 kts | 348° |
| 2026-04-25 20:27 | 45.56143 | 8.75222 | 1856 ft | 162 kts | 347° |
| 2026-04-25 20:27 | 45.57235 | 8.74930 | 1591 ft | 158 kts | 349° |
| 2026-04-25 20:27 | 45.58300 | 8.74654 | 1363 ft | 155 kts | 348° |
| 2026-04-25 20:27 | 45.59359 | 8.74360 | 1172 ft | 155 kts | 348° |
| 2026-04-25 20:28 | 45.60415 | 8.74064 | 985 ft | 154 kts | 348° |
| 2026-04-25 20:28 | 45.61468 | 8.73778 | 796 ft | 154 kts | 349° |
| 2026-04-25 20:28 | 45.62475 | 8.73501 | 743 ft | 131 kts | 349° |
| 2026-04-25 20:28 | 45.63182 | 8.73308 | 744 ft | 78 kts | 349° |
| 2026-04-25 20:29 | 45.63545 | 8.73208 | 745 ft | 38 kts | 345° |
| 2026-04-25 20:29 | 45.63713 | 8.73076 | 742 ft | 17 kts | 323° |
| 2026-04-25 20:29 | 45.63784 | 8.72968 | 743 ft | 15 kts | 305° |
| 2026-04-25 20:29 | 45.63841 | 8.72849 | 745 ft | 14 kts | 304° |
| 2026-04-25 20:30 | 45.63890 | 8.72749 | 743 ft | 12 kts | 305° |
| 2026-04-25 20:30 | 45.63925 | 8.72649 | 743 ft | 11 kts | 272° |
| 2026-04-25 20:30 | 45.63868 | 8.72592 | 743 ft | 11 kts | 173° |
| 2026-04-25 20:30 | 45.63793 | 8.72610 | 744 ft | 11 kts | 168° |
| 2026-04-25 20:31 | 45.63717 | 8.72632 | 741 ft | 11 kts | 168° |
| 2026-04-25 20:31 | 45.63644 | 8.72653 | 745 ft | 11 kts | 168° |
| 2026-04-25 20:31 | 45.63571 | 8.72674 | 742 ft | 11 kts | 168° |
| 2026-04-25 20:31 | 45.63500 | 8.72694 | 744 ft | 10 kts | 169° |
| 2026-04-25 20:32 | 45.63432 | 8.72689 | 741 ft | 9 kts | 212° |
| 2026-04-25 20:32 | 45.63408 | 8.72608 | 742 ft | 9 kts | 256° |
| 2026-04-25 20:32 | 45.63395 | 8.72534 | 742 ft | 7 kts | 257° |
| 2026-04-25 20:32 | 45.63387 | 8.72474 | 741 ft | 6 kts | 260° |
| 2026-04-25 20:33 | 45.63379 | 8.72404 | 743 ft | 10 kts | 259° |
| 2026-04-25 20:33 | 45.63366 | 8.72309 | 743 ft | 10 kts | 259° |
| 2026-04-25 20:33 | 45.63353 | 8.72216 | 745 ft | 10 kts | 259° |
| 2026-04-25 20:33 | 45.63345 | 8.72155 | 745 ft | 9 kts | 259° |
| 2026-04-25 20:34 | 45.63326 | 8.72032 | 742 ft | 9 kts | 251° |
| 2026-04-25 20:34 | 45.63281 | 8.71976 | 745 ft | 9 kts | 193° |
| 2026-04-25 20:34 | 45.63222 | 8.71984 | 745 ft | 8 kts | 171° |
| 2026-04-25 20:34 | 45.63166 | 8.72000 | 745 ft | 8 kts | 169° |
| 2026-04-25 20:35 | 45.63113 | 8.72015 | 743 ft | 7 kts | 169° |
| 2026-04-25 20:35 | 45.63105 | 8.72017 | 745 ft | 1 kts | 169° |
| 2026-04-25 20:35 | 45.63078 | 8.72025 | 742 ft | 4 kts | 169° |
| 2026-04-25 20:35 | 45.63074 | 8.72026 | 745 ft | 2 kts | 169° |
| 2026-04-25 20:36 | 45.63004 | 8.72046 | 742 ft | 13 kts | 169° |
| 2026-04-25 20:36 | 45.62912 | 8.72071 | 745 ft | 13 kts | 169° |
| 2026-04-25 20:36 | 45.62826 | 8.72095 | 745 ft | 12 kts | 169° |
| 2026-04-25 20:36 | 45.62742 | 8.72119 | 743 ft | 12 kts | 169° |
| 2026-04-25 20:37 | 45.62660 | 8.72142 | 744 ft | 12 kts | 169° |
| 2026-04-25 20:37 | 45.62580 | 8.72164 | 742 ft | 12 kts | 169° |
| 2026-04-25 20:37 | 45.62501 | 8.72186 | 743 ft | 11 kts | 169° |
| 2026-04-25 20:37 | 45.62423 | 8.72204 | 745 ft | 11 kts | 179° |
| 2026-04-25 20:38 | 45.62368 | 8.72146 | 742 ft | 10 kts | 253° |
| 2026-04-25 20:38 | 45.62360 | 8.72049 | 744 ft | 10 kts | 262° |
| 2026-04-25 20:38 | 45.62345 | 8.71955 | 745 ft | 10 kts | 246° |
| 2026-04-25 20:38 | 45.62293 | 8.71926 | 743 ft | 8 kts | 168° |
| 2026-04-25 20:39 | 45.62237 | 8.71943 | 742 ft | 8 kts | 168° |
| 2026-04-25 20:39 | 45.62180 | 8.71961 | 742 ft | 8 kts | 168° |
| 2026-04-25 20:39 | 45.62123 | 8.71978 | 746 ft | 8 kts | 168° |
| 2026-04-25 20:39 | 45.62104 | 8.71983 | 743 ft | 8 kts | 169° |
| 2026-04-25 20:40 | 45.62006 | 8.72010 | 742 ft | 9 kts | 169° |
| 2026-04-25 20:40 | 45.61946 | 8.72025 | 743 ft | 9 kts | 169° |
| 2026-04-25 20:40 | 45.61886 | 8.72041 | 745 ft | 9 kts | 169° |
| 2026-04-25 20:40 | 45.61825 | 8.72058 | 743 ft | 9 kts | 169° |
| 2026-04-25 20:41 | 45.61767 | 8.72073 | 745 ft | 8 kts | 169° |
| 2026-04-25 20:41 | 45.61711 | 8.72088 | 744 ft | 8 kts | 169° |
| 2026-04-25 20:41 | 45.61654 | 8.72103 | 744 ft | 8 kts | 169° |
| 2026-04-25 20:41 | 45.61597 | 8.72115 | 742 ft | 8 kts | 181° |
| 2026-04-25 20:42 | 45.61572 | 8.72065 | 742 ft | 6 kts | 261° |
| 2026-04-25 20:42 | 45.61564 | 8.72002 | 742 ft | 7 kts | 259° |
| 2026-04-25 20:42 | 45.61560 | 8.71977 | 744 ft | 0 kts | 258° |